<?xml version="1.0" encoding="UTF-8" ?>
<gpx version="1.1" xmlns:xsi="http://www.w3.org/2001/XMLSchema-instance" 
    xmlns="http://www.topografix.com/GPX/1/1" 
    xsi:schemaLocation="http://www.topografix.com/GPX/1/1 http://www.topografix.com/GPX/1/1/gpx.xsd" 
    creator="Openrunner - https://www.openrunner.com" >	<trk>
						<name>10519829-GT VTT 7</name>
						<trkseg>
					<trkpt lat="43.945860" lon="5.386840">
						<ele>388</ele>
						<time>2019-09-17T08:42:02Z</time>
					</trkpt>
					<trkpt lat="43.945990" lon="5.387220">
						<ele>385</ele>
						<time>2019-09-17T08:42:09Z</time>
					</trkpt>
					<trkpt lat="43.946000" lon="5.387870">
						<ele>377</ele>
						<time>2019-09-17T08:42:20Z</time>
					</trkpt>
					<trkpt lat="43.945790" lon="5.388960">
						<ele>370</ele>
						<time>2019-09-17T08:42:39Z</time>
					</trkpt>
					<trkpt lat="43.945660" lon="5.389380">
						<ele>368</ele>
						<time>2019-09-17T08:42:47Z</time>
					</trkpt>
					<trkpt lat="43.945590" lon="5.389720">
						<ele>365</ele>
						<time>2019-09-17T08:42:53Z</time>
					</trkpt>
					<trkpt lat="43.945230" lon="5.389760">
						<ele>360</ele>
						<time>2019-09-17T08:43:01Z</time>
					</trkpt>
					<trkpt lat="43.945210" lon="5.389930">
						<ele>358</ele>
						<time>2019-09-17T08:43:04Z</time>
					</trkpt>
					<trkpt lat="43.945040" lon="5.390360">
						<ele>352</ele>
						<time>2019-09-17T08:43:12Z</time>
					</trkpt>
					<trkpt lat="43.945030" lon="5.391020">
						<ele>347</ele>
						<time>2019-09-17T08:43:23Z</time>
					</trkpt>
					<trkpt lat="43.944760" lon="5.392050">
						<ele>344</ele>
						<time>2019-09-17T08:43:42Z</time>
					</trkpt>
					<trkpt lat="43.944650" lon="5.392390">
						<ele>344</ele>
						<time>2019-09-17T08:43:48Z</time>
					</trkpt>
					<trkpt lat="43.944360" lon="5.392780">
						<ele>342</ele>
						<time>2019-09-17T08:43:57Z</time>
					</trkpt>
					<trkpt lat="43.944100" lon="5.392900">
						<ele>341</ele>
						<time>2019-09-17T08:44:04Z</time>
					</trkpt>
					<trkpt lat="43.943850" lon="5.392900">
						<ele>340</ele>
						<time>2019-09-17T08:44:10Z</time>
					</trkpt>
					<trkpt lat="43.943670" lon="5.392980">
						<ele>339</ele>
						<time>2019-09-17T08:44:14Z</time>
					</trkpt>
					<trkpt lat="43.943450" lon="5.393030">
						<ele>338</ele>
						<time>2019-09-17T08:44:19Z</time>
					</trkpt>
					<trkpt lat="43.942950" lon="5.393240">
						<ele>335</ele>
						<time>2019-09-17T08:44:31Z</time>
					</trkpt>
					<trkpt lat="43.942720" lon="5.393750">
						<ele>336</ele>
						<time>2019-09-17T08:44:42Z</time>
					</trkpt>
					<trkpt lat="43.941990" lon="5.393570">
						<ele>332</ele>
						<time>2019-09-17T08:44:59Z</time>
					</trkpt>
					<trkpt lat="43.941710" lon="5.393450">
						<ele>330</ele>
						<time>2019-09-17T08:45:06Z</time>
					</trkpt>
					<trkpt lat="43.941170" lon="5.393570">
						<ele>331</ele>
						<time>2019-09-17T08:45:19Z</time>
					</trkpt>
					<trkpt lat="43.940820" lon="5.393400">
						<ele>329</ele>
						<time>2019-09-17T08:45:27Z</time>
					</trkpt>
					<trkpt lat="43.940540" lon="5.393340">
						<ele>327</ele>
						<time>2019-09-17T08:45:34Z</time>
					</trkpt>
					<trkpt lat="43.940360" lon="5.393400">
						<ele>327</ele>
						<time>2019-09-17T08:45:38Z</time>
					</trkpt>
					<trkpt lat="43.939570" lon="5.394060">
						<ele>328</ele>
						<time>2019-09-17T08:46:00Z</time>
					</trkpt>
					<trkpt lat="43.938790" lon="5.394490">
						<ele>328</ele>
						<time>2019-09-17T08:46:19Z</time>
					</trkpt>
					<trkpt lat="43.938280" lon="5.394840">
						<ele>328</ele>
						<time>2019-09-17T08:46:33Z</time>
					</trkpt>
					<trkpt lat="43.938040" lon="5.394910">
						<ele>327</ele>
						<time>2019-09-17T08:46:38Z</time>
					</trkpt>
					<trkpt lat="43.937590" lon="5.396050">
						<ele>333</ele>
						<time>2019-09-17T08:47:00Z</time>
					</trkpt>
					<trkpt lat="43.937260" lon="5.394810">
						<ele>324</ele>
						<time>2019-09-17T08:47:22Z</time>
					</trkpt>
					<trkpt lat="43.936890" lon="5.393040">
						<ele>316</ele>
						<time>2019-09-17T08:47:53Z</time>
					</trkpt>
					<trkpt lat="43.936710" lon="5.393300">
						<ele>317</ele>
						<time>2019-09-17T08:47:59Z</time>
					</trkpt>
					<trkpt lat="43.935650" lon="5.395860">
						<ele>326</ele>
						<time>2019-09-17T08:48:49Z</time>
					</trkpt>
					<trkpt lat="43.935350" lon="5.396400">
						<ele>327</ele>
						<time>2019-09-17T08:49:01Z</time>
					</trkpt>
					<trkpt lat="43.934330" lon="5.397570">
						<ele>334</ele>
						<time>2019-09-17T08:49:31Z</time>
					</trkpt>
					<trkpt lat="43.933730" lon="5.398320">
						<ele>338</ele>
						<time>2019-09-17T08:49:50Z</time>
					</trkpt>
					<trkpt lat="43.933530" lon="5.398660">
						<ele>339</ele>
						<time>2019-09-17T08:49:58Z</time>
					</trkpt>
					<trkpt lat="43.933140" lon="5.399590">
						<ele>337</ele>
						<time>2019-09-17T08:50:16Z</time>
					</trkpt>
					<trkpt lat="43.932910" lon="5.400570">
						<ele>332</ele>
						<time>2019-09-17T08:50:33Z</time>
					</trkpt>
					<trkpt lat="43.932240" lon="5.402560">
						<ele>328</ele>
						<time>2019-09-17T08:51:10Z</time>
					</trkpt>
					<trkpt lat="43.932190" lon="5.403410">
						<ele>327</ele>
						<time>2019-09-17T08:51:24Z</time>
					</trkpt>
					<trkpt lat="43.932220" lon="5.404290">
						<ele>325</ele>
						<time>2019-09-17T08:51:39Z</time>
					</trkpt>
					<trkpt lat="43.932200" lon="5.404730">
						<ele>323</ele>
						<time>2019-09-17T08:51:47Z</time>
					</trkpt>
					<trkpt lat="43.932110" lon="5.405060">
						<ele>322</ele>
						<time>2019-09-17T08:51:53Z</time>
					</trkpt>
					<trkpt lat="43.931650" lon="5.406080">
						<ele>318</ele>
						<time>2019-09-17T08:52:13Z</time>
					</trkpt>
					<trkpt lat="43.931620" lon="5.406450">
						<ele>316</ele>
						<time>2019-09-17T08:52:19Z</time>
					</trkpt>
					<trkpt lat="43.931680" lon="5.407180">
						<ele>312</ele>
						<time>2019-09-17T08:52:31Z</time>
					</trkpt>
					<trkpt lat="43.931810" lon="5.408220">
						<ele>311</ele>
						<time>2019-09-17T08:52:49Z</time>
					</trkpt>
					<trkpt lat="43.931790" lon="5.408750">
						<ele>309</ele>
						<time>2019-09-17T08:52:58Z</time>
					</trkpt>
					<trkpt lat="43.932100" lon="5.409780">
						<ele>310</ele>
						<time>2019-09-17T08:53:17Z</time>
					</trkpt>
					<trkpt lat="43.932250" lon="5.410430">
						<ele>311</ele>
						<time>2019-09-17T08:53:28Z</time>
					</trkpt>
					<trkpt lat="43.931600" lon="5.411080">
						<ele>303</ele>
						<time>2019-09-17T08:53:47Z</time>
					</trkpt>
					<trkpt lat="43.930860" lon="5.412890">
						<ele>301</ele>
						<time>2019-09-17T08:54:22Z</time>
					</trkpt>
					<trkpt lat="43.930710" lon="5.412990">
						<ele>302</ele>
						<time>2019-09-17T08:54:26Z</time>
					</trkpt>
					<trkpt lat="43.930590" lon="5.413010">
						<ele>301</ele>
						<time>2019-09-17T08:54:29Z</time>
					</trkpt>
					<trkpt lat="43.929790" lon="5.412690">
						<ele>299</ele>
						<time>2019-09-17T08:54:48Z</time>
					</trkpt>
					<trkpt lat="43.928810" lon="5.412140">
						<ele>298</ele>
						<time>2019-09-17T08:55:13Z</time>
					</trkpt>
					<trkpt lat="43.928170" lon="5.411710">
						<ele>297</ele>
						<time>2019-09-17T08:55:29Z</time>
					</trkpt>
					<trkpt lat="43.927620" lon="5.411230">
						<ele>296</ele>
						<time>2019-09-17T08:55:45Z</time>
					</trkpt>
					<trkpt lat="43.926680" lon="5.410200">
						<ele>297</ele>
						<time>2019-09-17T08:56:13Z</time>
					</trkpt>
					<trkpt lat="43.926310" lon="5.409640">
						<ele>296</ele>
						<time>2019-09-17T08:56:25Z</time>
					</trkpt>
					<trkpt lat="43.925960" lon="5.409050">
						<ele>294</ele>
						<time>2019-09-17T08:56:38Z</time>
					</trkpt>
					<trkpt lat="43.925380" lon="5.407960">
						<ele>294</ele>
						<time>2019-09-17T08:57:01Z</time>
					</trkpt>
					<trkpt lat="43.925270" lon="5.407820">
						<ele>295</ele>
						<time>2019-09-17T08:57:05Z</time>
					</trkpt>
					<trkpt lat="43.925080" lon="5.407730">
						<ele>295</ele>
						<time>2019-09-17T08:57:09Z</time>
					</trkpt>
					<trkpt lat="43.923790" lon="5.407410">
						<ele>300</ele>
						<time>2019-09-17T08:57:40Z</time>
					</trkpt>
					<trkpt lat="43.923560" lon="5.407250">
						<ele>301</ele>
						<time>2019-09-17T08:57:46Z</time>
					</trkpt>
					<trkpt lat="43.923240" lon="5.406880">
						<ele>305</ele>
						<time>2019-09-17T08:57:56Z</time>
					</trkpt>
					<trkpt lat="43.923080" lon="5.406580">
						<ele>307</ele>
						<time>2019-09-17T08:58:02Z</time>
					</trkpt>
					<trkpt lat="43.922900" lon="5.406900">
						<ele>299</ele>
						<time>2019-09-17T08:58:09Z</time>
					</trkpt>
					<trkpt lat="43.922850" lon="5.407070">
						<ele>295</ele>
						<time>2019-09-17T08:58:12Z</time>
					</trkpt>
					<trkpt lat="43.922740" lon="5.407290">
						<ele>291</ele>
						<time>2019-09-17T08:58:16Z</time>
					</trkpt>
					<trkpt lat="43.922440" lon="5.408270">
						<ele>284</ele>
						<time>2019-09-17T08:58:34Z</time>
					</trkpt>
					<trkpt lat="43.922200" lon="5.408240">
						<ele>282</ele>
						<time>2019-09-17T08:58:40Z</time>
					</trkpt>
					<trkpt lat="43.922110" lon="5.408340">
						<ele>281</ele>
						<time>2019-09-17T08:58:43Z</time>
					</trkpt>
					<trkpt lat="43.922070" lon="5.408760">
						<ele>281</ele>
						<time>2019-09-17T08:58:50Z</time>
					</trkpt>
					<trkpt lat="43.921740" lon="5.409360">
						<ele>280</ele>
						<time>2019-09-17T08:59:02Z</time>
					</trkpt>
					<trkpt lat="43.921540" lon="5.409640">
						<ele>280</ele>
						<time>2019-09-17T08:59:09Z</time>
					</trkpt>
					<trkpt lat="43.921390" lon="5.409750">
						<ele>280</ele>
						<time>2019-09-17T08:59:13Z</time>
					</trkpt>
					<trkpt lat="43.919790" lon="5.410540">
						<ele>285</ele>
						<time>2019-09-17T08:59:53Z</time>
					</trkpt>
					<trkpt lat="43.918900" lon="5.409860">
						<ele>283</ele>
						<time>2019-09-17T09:00:16Z</time>
					</trkpt>
					<trkpt lat="43.918640" lon="5.410640">
						<ele>285</ele>
						<time>2019-09-17T09:00:31Z</time>
					</trkpt>
					<trkpt lat="43.918560" lon="5.410730">
						<ele>285</ele>
						<time>2019-09-17T09:00:33Z</time>
					</trkpt>
					<trkpt lat="43.918180" lon="5.410710">
						<ele>287</ele>
						<time>2019-09-17T09:00:42Z</time>
					</trkpt>
					<trkpt lat="43.917850" lon="5.410800">
						<ele>290</ele>
						<time>2019-09-17T09:00:50Z</time>
					</trkpt>
					<trkpt lat="43.917730" lon="5.410900">
						<ele>291</ele>
						<time>2019-09-17T09:00:53Z</time>
					</trkpt>
					<trkpt lat="43.917340" lon="5.411510">
						<ele>294</ele>
						<time>2019-09-17T09:01:07Z</time>
					</trkpt>
					<trkpt lat="43.916180" lon="5.412640">
						<ele>301</ele>
						<time>2019-09-17T09:01:40Z</time>
					</trkpt>
					<trkpt lat="43.915770" lon="5.412700">
						<ele>305</ele>
						<time>2019-09-17T09:01:50Z</time>
					</trkpt>
					<trkpt lat="43.914950" lon="5.412700">
						<ele>309</ele>
						<time>2019-09-17T09:02:09Z</time>
					</trkpt>
					<trkpt lat="43.914730" lon="5.412780">
						<ele>311</ele>
						<time>2019-09-17T09:02:14Z</time>
					</trkpt>
					<trkpt lat="43.914400" lon="5.412970">
						<ele>316</ele>
						<time>2019-09-17T09:02:22Z</time>
					</trkpt>
					<trkpt lat="43.914150" lon="5.412790">
						<ele>317</ele>
						<time>2019-09-17T09:02:29Z</time>
					</trkpt>
					<trkpt lat="43.913870" lon="5.412330">
						<ele>316</ele>
						<time>2019-09-17T09:02:39Z</time>
					</trkpt>
					<trkpt lat="43.913630" lon="5.412060">
						<ele>317</ele>
						<time>2019-09-17T09:02:46Z</time>
					</trkpt>
					<trkpt lat="43.913040" lon="5.411790">
						<ele>321</ele>
						<time>2019-09-17T09:03:01Z</time>
					</trkpt>
					<trkpt lat="43.912980" lon="5.411810">
						<ele>322</ele>
						<time>2019-09-17T09:03:02Z</time>
					</trkpt>
					<trkpt lat="43.912890" lon="5.411950">
						<ele>324</ele>
						<time>2019-09-17T09:03:05Z</time>
					</trkpt>
					<trkpt lat="43.912880" lon="5.412380">
						<ele>329</ele>
						<time>2019-09-17T09:03:13Z</time>
					</trkpt>
					<trkpt lat="43.912620" lon="5.412890">
						<ele>334</ele>
						<time>2019-09-17T09:03:23Z</time>
					</trkpt>
					<trkpt lat="43.912550" lon="5.413130">
						<ele>335</ele>
						<time>2019-09-17T09:03:28Z</time>
					</trkpt>
					<trkpt lat="43.912590" lon="5.413320">
						<ele>334</ele>
						<time>2019-09-17T09:03:31Z</time>
					</trkpt>
					<trkpt lat="43.912800" lon="5.413530">
						<ele>334</ele>
						<time>2019-09-17T09:03:37Z</time>
					</trkpt>
					<trkpt lat="43.912840" lon="5.413630">
						<ele>334</ele>
						<time>2019-09-17T09:03:39Z</time>
					</trkpt>
					<trkpt lat="43.912850" lon="5.413750">
						<ele>334</ele>
						<time>2019-09-17T09:03:41Z</time>
					</trkpt>
					<trkpt lat="43.912730" lon="5.413950">
						<ele>335</ele>
						<time>2019-09-17T09:03:45Z</time>
					</trkpt>
					<trkpt lat="43.912650" lon="5.413970">
						<ele>336</ele>
						<time>2019-09-17T09:03:47Z</time>
					</trkpt>
					<trkpt lat="43.912570" lon="5.413950">
						<ele>336</ele>
						<time>2019-09-17T09:03:49Z</time>
					</trkpt>
					<trkpt lat="43.912520" lon="5.414160">
						<ele>337</ele>
						<time>2019-09-17T09:03:53Z</time>
					</trkpt>
					<trkpt lat="43.912390" lon="5.414500">
						<ele>340</ele>
						<time>2019-09-17T09:03:59Z</time>
					</trkpt>
					<trkpt lat="43.912120" lon="5.414690">
						<ele>345</ele>
						<time>2019-09-17T09:04:06Z</time>
					</trkpt>
					<trkpt lat="43.912010" lon="5.414860">
						<ele>348</ele>
						<time>2019-09-17T09:04:10Z</time>
					</trkpt>
					<trkpt lat="43.912120" lon="5.415350">
						<ele>348</ele>
						<time>2019-09-17T09:04:19Z</time>
					</trkpt>
					<trkpt lat="43.912100" lon="5.415580">
						<ele>349</ele>
						<time>2019-09-17T09:04:23Z</time>
					</trkpt>
					<trkpt lat="43.911940" lon="5.415720">
						<ele>352</ele>
						<time>2019-09-17T09:04:27Z</time>
					</trkpt>
					<trkpt lat="43.911740" lon="5.416090">
						<ele>358</ele>
						<time>2019-09-17T09:04:35Z</time>
					</trkpt>
					<trkpt lat="43.911740" lon="5.416240">
						<ele>359</ele>
						<time>2019-09-17T09:04:37Z</time>
					</trkpt>
					<trkpt lat="43.911980" lon="5.416760">
						<ele>358</ele>
						<time>2019-09-17T09:04:48Z</time>
					</trkpt>
					<trkpt lat="43.912080" lon="5.417530">
						<ele>359</ele>
						<time>2019-09-17T09:05:01Z</time>
					</trkpt>
					<trkpt lat="43.912220" lon="5.417770">
						<ele>355</ele>
						<time>2019-09-17T09:05:06Z</time>
					</trkpt>
					<trkpt lat="43.912380" lon="5.418150">
						<ele>353</ele>
						<time>2019-09-17T09:05:14Z</time>
					</trkpt>
					<trkpt lat="43.913070" lon="5.418570">
						<ele>339</ele>
						<time>2019-09-17T09:05:31Z</time>
					</trkpt>
					<trkpt lat="43.913080" lon="5.418980">
						<ele>339</ele>
						<time>2019-09-17T09:05:38Z</time>
					</trkpt>
					<trkpt lat="43.913140" lon="5.419420">
						<ele>337</ele>
						<time>2019-09-17T09:05:46Z</time>
					</trkpt>
					<trkpt lat="43.913120" lon="5.419670">
						<ele>337</ele>
						<time>2019-09-17T09:05:50Z</time>
					</trkpt>
					<trkpt lat="43.913150" lon="5.420060">
						<ele>335</ele>
						<time>2019-09-17T09:05:56Z</time>
					</trkpt>
					<trkpt lat="43.913410" lon="5.420720">
						<ele>333</ele>
						<time>2019-09-17T09:06:09Z</time>
					</trkpt>
					<trkpt lat="43.913470" lon="5.420930">
						<ele>334</ele>
						<time>2019-09-17T09:06:13Z</time>
					</trkpt>
					<trkpt lat="43.913530" lon="5.421170">
						<ele>335</ele>
						<time>2019-09-17T09:06:17Z</time>
					</trkpt>
					<trkpt lat="43.913520" lon="5.421530">
						<ele>336</ele>
						<time>2019-09-17T09:06:23Z</time>
					</trkpt>
					<trkpt lat="43.913570" lon="5.421640">
						<ele>337</ele>
						<time>2019-09-17T09:06:25Z</time>
					</trkpt>
					<trkpt lat="43.913640" lon="5.421340">
						<ele>337</ele>
						<time>2019-09-17T09:06:31Z</time>
					</trkpt>
					<trkpt lat="43.913630" lon="5.420940">
						<ele>335</ele>
						<time>2019-09-17T09:06:37Z</time>
					</trkpt>
					<trkpt lat="43.913700" lon="5.420790">
						<ele>335</ele>
						<time>2019-09-17T09:06:40Z</time>
					</trkpt>
					<trkpt lat="43.913830" lon="5.420770">
						<ele>335</ele>
						<time>2019-09-17T09:06:44Z</time>
					</trkpt>
					<trkpt lat="43.914470" lon="5.421380">
						<ele>346</ele>
						<time>2019-09-17T09:07:02Z</time>
					</trkpt>
					<trkpt lat="43.914920" lon="5.421620">
						<ele>354</ele>
						<time>2019-09-17T09:07:13Z</time>
					</trkpt>
					<trkpt lat="43.915450" lon="5.421710">
						<ele>360</ele>
						<time>2019-09-17T09:07:25Z</time>
					</trkpt>
					<trkpt lat="43.915620" lon="5.421860">
						<ele>361</ele>
						<time>2019-09-17T09:07:30Z</time>
					</trkpt>
					<trkpt lat="43.916100" lon="5.421930">
						<ele>365</ele>
						<time>2019-09-17T09:07:41Z</time>
					</trkpt>
					<trkpt lat="43.916380" lon="5.422100">
						<ele>366</ele>
						<time>2019-09-17T09:07:48Z</time>
					</trkpt>
					<trkpt lat="43.916490" lon="5.422030">
						<ele>367</ele>
						<time>2019-09-17T09:07:51Z</time>
					</trkpt>
					<trkpt lat="43.916630" lon="5.421840">
						<ele>369</ele>
						<time>2019-09-17T09:07:56Z</time>
					</trkpt>
					<trkpt lat="43.916960" lon="5.421720">
						<ele>374</ele>
						<time>2019-09-17T09:08:04Z</time>
					</trkpt>
					<trkpt lat="43.917230" lon="5.421770">
						<ele>376</ele>
						<time>2019-09-17T09:08:10Z</time>
					</trkpt>
					<trkpt lat="43.917650" lon="5.421760">
						<ele>380</ele>
						<time>2019-09-17T09:08:20Z</time>
					</trkpt>
					<trkpt lat="43.918160" lon="5.422340">
						<ele>381</ele>
						<time>2019-09-17T09:08:35Z</time>
					</trkpt>
					<trkpt lat="43.918460" lon="5.422430">
						<ele>382</ele>
						<time>2019-09-17T09:08:43Z</time>
					</trkpt>
					<trkpt lat="43.918590" lon="5.422420">
						<ele>381</ele>
						<time>2019-09-17T09:08:46Z</time>
					</trkpt>
					<trkpt lat="43.918700" lon="5.422530">
						<ele>381</ele>
						<time>2019-09-17T09:08:49Z</time>
					</trkpt>
					<trkpt lat="43.918830" lon="5.422560">
						<ele>380</ele>
						<time>2019-09-17T09:08:52Z</time>
					</trkpt>
					<trkpt lat="43.918990" lon="5.422920">
						<ele>378</ele>
						<time>2019-09-17T09:08:59Z</time>
					</trkpt>
					<trkpt lat="43.919080" lon="5.423020">
						<ele>378</ele>
						<time>2019-09-17T09:09:02Z</time>
					</trkpt>
					<trkpt lat="43.919210" lon="5.423470">
						<ele>376</ele>
						<time>2019-09-17T09:09:10Z</time>
					</trkpt>
					<trkpt lat="43.919120" lon="5.423830">
						<ele>375</ele>
						<time>2019-09-17T09:09:16Z</time>
					</trkpt>
					<trkpt lat="43.919010" lon="5.424040">
						<ele>373</ele>
						<time>2019-09-17T09:09:21Z</time>
					</trkpt>
					<trkpt lat="43.918850" lon="5.424690">
						<ele>370</ele>
						<time>2019-09-17T09:09:32Z</time>
					</trkpt>
					<trkpt lat="43.918530" lon="5.425090">
						<ele>368</ele>
						<time>2019-09-17T09:09:42Z</time>
					</trkpt>
					<trkpt lat="43.918530" lon="5.425130">
						<ele>368</ele>
						<time>2019-09-17T09:09:43Z</time>
					</trkpt>
					<trkpt lat="43.918650" lon="5.425460">
						<ele>370</ele>
						<time>2019-09-17T09:09:49Z</time>
					</trkpt>
					<trkpt lat="43.919100" lon="5.426200">
						<ele>375</ele>
						<time>2019-09-17T09:10:05Z</time>
					</trkpt>
					<trkpt lat="43.919150" lon="5.426490">
						<ele>378</ele>
						<time>2019-09-17T09:10:10Z</time>
					</trkpt>
					<trkpt lat="43.919230" lon="5.426610">
						<ele>378</ele>
						<time>2019-09-17T09:10:13Z</time>
					</trkpt>
					<trkpt lat="43.919300" lon="5.426940">
						<ele>380</ele>
						<time>2019-09-17T09:10:19Z</time>
					</trkpt>
					<trkpt lat="43.919460" lon="5.427270">
						<ele>379</ele>
						<time>2019-09-17T09:10:26Z</time>
					</trkpt>
					<trkpt lat="43.919470" lon="5.427640">
						<ele>381</ele>
						<time>2019-09-17T09:10:32Z</time>
					</trkpt>
					<trkpt lat="43.919400" lon="5.428010">
						<ele>384</ele>
						<time>2019-09-17T09:10:38Z</time>
					</trkpt>
					<trkpt lat="43.919220" lon="5.428530">
						<ele>389</ele>
						<time>2019-09-17T09:10:48Z</time>
					</trkpt>
					<trkpt lat="43.919310" lon="5.428980">
						<ele>390</ele>
						<time>2019-09-17T09:10:56Z</time>
					</trkpt>
					<trkpt lat="43.919370" lon="5.429170">
						<ele>391</ele>
						<time>2019-09-17T09:10:59Z</time>
					</trkpt>
					<trkpt lat="43.919590" lon="5.429280">
						<ele>390</ele>
						<time>2019-09-17T09:11:05Z</time>
					</trkpt>
					<trkpt lat="43.919640" lon="5.429340">
						<ele>390</ele>
						<time>2019-09-17T09:11:06Z</time>
					</trkpt>
					<trkpt lat="43.919730" lon="5.429350">
						<ele>390</ele>
						<time>2019-09-17T09:11:08Z</time>
					</trkpt>
					<trkpt lat="43.919790" lon="5.429550">
						<ele>391</ele>
						<time>2019-09-17T09:11:12Z</time>
					</trkpt>
					<trkpt lat="43.919930" lon="5.429680">
						<ele>391</ele>
						<time>2019-09-17T09:11:16Z</time>
					</trkpt>
					<trkpt lat="43.920290" lon="5.430220">
						<ele>393</ele>
						<time>2019-09-17T09:11:28Z</time>
					</trkpt>
					<trkpt lat="43.920370" lon="5.430450">
						<ele>392</ele>
						<time>2019-09-17T09:11:33Z</time>
					</trkpt>
					<trkpt lat="43.920410" lon="5.431080">
						<ele>390</ele>
						<time>2019-09-17T09:11:43Z</time>
					</trkpt>
					<trkpt lat="43.920570" lon="5.431490">
						<ele>388</ele>
						<time>2019-09-17T09:11:51Z</time>
					</trkpt>
					<trkpt lat="43.920560" lon="5.432190">
						<ele>392</ele>
						<time>2019-09-17T09:12:03Z</time>
					</trkpt>
					<trkpt lat="43.920730" lon="5.432500">
						<ele>395</ele>
						<time>2019-09-17T09:12:10Z</time>
					</trkpt>
					<trkpt lat="43.920760" lon="5.432850">
						<ele>399</ele>
						<time>2019-09-17T09:12:15Z</time>
					</trkpt>
					<trkpt lat="43.921230" lon="5.434030">
						<ele>399</ele>
						<time>2019-09-17T09:12:38Z</time>
					</trkpt>
					<trkpt lat="43.921470" lon="5.434420">
						<ele>398</ele>
						<time>2019-09-17T09:12:47Z</time>
					</trkpt>
					<trkpt lat="43.921590" lon="5.434680">
						<ele>399</ele>
						<time>2019-09-17T09:12:52Z</time>
					</trkpt>
					<trkpt lat="43.921590" lon="5.435040">
						<ele>400</ele>
						<time>2019-09-17T09:12:58Z</time>
					</trkpt>
					<trkpt lat="43.921550" lon="5.435520">
						<ele>395</ele>
						<time>2019-09-17T09:13:06Z</time>
					</trkpt>
					<trkpt lat="43.921890" lon="5.435380">
						<ele>391</ele>
						<time>2019-09-17T09:13:14Z</time>
					</trkpt>
					<trkpt lat="43.921960" lon="5.435480">
						<ele>388</ele>
						<time>2019-09-17T09:13:17Z</time>
					</trkpt>
					<trkpt lat="43.922460" lon="5.435190">
						<ele>381</ele>
						<time>2019-09-17T09:13:29Z</time>
					</trkpt>
					<trkpt lat="43.922610" lon="5.434990">
						<ele>380</ele>
						<time>2019-09-17T09:13:34Z</time>
					</trkpt>
					<trkpt lat="43.922660" lon="5.434760">
						<ele>378</ele>
						<time>2019-09-17T09:13:38Z</time>
					</trkpt>
					<trkpt lat="43.922660" lon="5.434500">
						<ele>377</ele>
						<time>2019-09-17T09:13:43Z</time>
					</trkpt>
					<trkpt lat="43.922800" lon="5.434280">
						<ele>374</ele>
						<time>2019-09-17T09:13:48Z</time>
					</trkpt>
					<trkpt lat="43.923050" lon="5.434410">
						<ele>369</ele>
						<time>2019-09-17T09:13:54Z</time>
					</trkpt>
					<trkpt lat="43.923130" lon="5.434580">
						<ele>368</ele>
						<time>2019-09-17T09:13:57Z</time>
					</trkpt>
					<trkpt lat="43.923200" lon="5.434890">
						<ele>367</ele>
						<time>2019-09-17T09:14:03Z</time>
					</trkpt>
					<trkpt lat="43.923330" lon="5.435130">
						<ele>363</ele>
						<time>2019-09-17T09:14:08Z</time>
					</trkpt>
					<trkpt lat="43.923530" lon="5.435230">
						<ele>360</ele>
						<time>2019-09-17T09:14:13Z</time>
					</trkpt>
					<trkpt lat="43.923760" lon="5.435290">
						<ele>357</ele>
						<time>2019-09-17T09:14:18Z</time>
					</trkpt>
					<trkpt lat="43.924470" lon="5.435140">
						<ele>351</ele>
						<time>2019-09-17T09:14:35Z</time>
					</trkpt>
					<trkpt lat="43.925450" lon="5.435300">
						<ele>347</ele>
						<time>2019-09-17T09:14:58Z</time>
					</trkpt>
					<trkpt lat="43.925380" lon="5.437350">
						<ele>335</ele>
						<time>2019-09-17T09:15:33Z</time>
					</trkpt>
					<trkpt lat="43.925380" lon="5.438100">
						<ele>332</ele>
						<time>2019-09-17T09:15:45Z</time>
					</trkpt>
					<trkpt lat="43.925540" lon="5.438890">
						<ele>331</ele>
						<time>2019-09-17T09:15:59Z</time>
					</trkpt>
					<trkpt lat="43.926080" lon="5.440390">
						<ele>327</ele>
						<time>2019-09-17T09:16:27Z</time>
					</trkpt>
					<trkpt lat="43.926080" lon="5.440730">
						<ele>327</ele>
						<time>2019-09-17T09:16:33Z</time>
					</trkpt>
					<trkpt lat="43.925620" lon="5.442060">
						<ele>326</ele>
						<time>2019-09-17T09:16:58Z</time>
					</trkpt>
					<trkpt lat="43.926600" lon="5.443040">
						<ele>333</ele>
						<time>2019-09-17T09:17:26Z</time>
					</trkpt>
					<trkpt lat="43.926770" lon="5.443520">
						<ele>335</ele>
						<time>2019-09-17T09:17:35Z</time>
					</trkpt>
					<trkpt lat="43.927040" lon="5.443610">
						<ele>336</ele>
						<time>2019-09-17T09:17:41Z</time>
					</trkpt>
					<trkpt lat="43.928130" lon="5.444720">
						<ele>344</ele>
						<time>2019-09-17T09:18:13Z</time>
					</trkpt>
					<trkpt lat="43.928210" lon="5.444740">
						<ele>344</ele>
						<time>2019-09-17T09:18:15Z</time>
					</trkpt>
					<trkpt lat="43.928900" lon="5.445110">
						<ele>350</ele>
						<time>2019-09-17T09:18:32Z</time>
					</trkpt>
					<trkpt lat="43.929060" lon="5.445490">
						<ele>352</ele>
						<time>2019-09-17T09:18:40Z</time>
					</trkpt>
					<trkpt lat="43.929530" lon="5.446420">
						<ele>359</ele>
						<time>2019-09-17T09:18:59Z</time>
					</trkpt>
					<trkpt lat="43.929890" lon="5.447420">
						<ele>369</ele>
						<time>2019-09-17T09:19:17Z</time>
					</trkpt>
					<trkpt lat="43.929950" lon="5.447750">
						<ele>371</ele>
						<time>2019-09-17T09:19:23Z</time>
					</trkpt>
					<trkpt lat="43.930120" lon="5.447970">
						<ele>373</ele>
						<time>2019-09-17T09:19:29Z</time>
					</trkpt>
					<trkpt lat="43.930420" lon="5.448200">
						<ele>375</ele>
						<time>2019-09-17T09:19:37Z</time>
					</trkpt>
					<trkpt lat="43.930420" lon="5.448300">
						<ele>375</ele>
						<time>2019-09-17T09:19:38Z</time>
					</trkpt>
					<trkpt lat="43.930310" lon="5.448760">
						<ele>377</ele>
						<time>2019-09-17T09:19:46Z</time>
					</trkpt>
					<trkpt lat="43.930350" lon="5.448950">
						<ele>378</ele>
						<time>2019-09-17T09:19:50Z</time>
					</trkpt>
					<trkpt lat="43.930450" lon="5.449040">
						<ele>380</ele>
						<time>2019-09-17T09:19:53Z</time>
					</trkpt>
					<trkpt lat="43.930570" lon="5.449080">
						<ele>382</ele>
						<time>2019-09-17T09:19:55Z</time>
					</trkpt>
					<trkpt lat="43.930700" lon="5.449000">
						<ele>383</ele>
						<time>2019-09-17T09:19:59Z</time>
					</trkpt>
					<trkpt lat="43.930900" lon="5.449020">
						<ele>384</ele>
						<time>2019-09-17T09:20:03Z</time>
					</trkpt>
					<trkpt lat="43.931050" lon="5.449160">
						<ele>385</ele>
						<time>2019-09-17T09:20:08Z</time>
					</trkpt>
					<trkpt lat="43.931100" lon="5.449270">
						<ele>386</ele>
						<time>2019-09-17T09:20:10Z</time>
					</trkpt>
					<trkpt lat="43.930960" lon="5.449410">
						<ele>387</ele>
						<time>2019-09-17T09:20:14Z</time>
					</trkpt>
					<trkpt lat="43.929220" lon="5.452730">
						<ele>375</ele>
						<time>2019-09-17T09:21:23Z</time>
					</trkpt>
					<trkpt lat="43.929090" lon="5.452860">
						<ele>374</ele>
						<time>2019-09-17T09:21:27Z</time>
					</trkpt>
					<trkpt lat="43.929030" lon="5.452870">
						<ele>373</ele>
						<time>2019-09-17T09:21:28Z</time>
					</trkpt>
					<trkpt lat="43.929070" lon="5.453030">
						<ele>374</ele>
						<time>2019-09-17T09:21:31Z</time>
					</trkpt>
					<trkpt lat="43.929200" lon="5.453260">
						<ele>376</ele>
						<time>2019-09-17T09:21:36Z</time>
					</trkpt>
					<trkpt lat="43.929300" lon="5.453520">
						<ele>378</ele>
						<time>2019-09-17T09:21:41Z</time>
					</trkpt>
					<trkpt lat="43.929330" lon="5.453770">
						<ele>379</ele>
						<time>2019-09-17T09:21:45Z</time>
					</trkpt>
					<trkpt lat="43.929290" lon="5.453880">
						<ele>379</ele>
						<time>2019-09-17T09:21:47Z</time>
					</trkpt>
					<trkpt lat="43.929670" lon="5.454480">
						<ele>384</ele>
						<time>2019-09-17T09:22:01Z</time>
					</trkpt>
					<trkpt lat="43.929850" lon="5.455160">
						<ele>387</ele>
						<time>2019-09-17T09:22:13Z</time>
					</trkpt>
					<trkpt lat="43.929850" lon="5.455430">
						<ele>389</ele>
						<time>2019-09-17T09:22:17Z</time>
					</trkpt>
					<trkpt lat="43.929960" lon="5.455960">
						<ele>394</ele>
						<time>2019-09-17T09:22:27Z</time>
					</trkpt>
					<trkpt lat="43.930080" lon="5.456270">
						<ele>396</ele>
						<time>2019-09-17T09:22:33Z</time>
					</trkpt>
					<trkpt lat="43.930260" lon="5.456500">
						<ele>397</ele>
						<time>2019-09-17T09:22:38Z</time>
					</trkpt>
					<trkpt lat="43.930890" lon="5.456590">
						<ele>399</ele>
						<time>2019-09-17T09:22:53Z</time>
					</trkpt>
					<trkpt lat="43.931110" lon="5.456890">
						<ele>402</ele>
						<time>2019-09-17T09:23:00Z</time>
					</trkpt>
					<trkpt lat="43.931540" lon="5.457140">
						<ele>405</ele>
						<time>2019-09-17T09:23:11Z</time>
					</trkpt>
					<trkpt lat="43.931750" lon="5.457080">
						<ele>407</ele>
						<time>2019-09-17T09:23:16Z</time>
					</trkpt>
					<trkpt lat="43.931850" lon="5.457120">
						<ele>409</ele>
						<time>2019-09-17T09:23:19Z</time>
					</trkpt>
					<trkpt lat="43.931850" lon="5.457190">
						<ele>409</ele>
						<time>2019-09-17T09:23:20Z</time>
					</trkpt>
					<trkpt lat="43.931800" lon="5.457270">
						<ele>408</ele>
						<time>2019-09-17T09:23:22Z</time>
					</trkpt>
					<trkpt lat="43.931670" lon="5.457370">
						<ele>406</ele>
						<time>2019-09-17T09:23:25Z</time>
					</trkpt>
					<trkpt lat="43.931640" lon="5.457520">
						<ele>406</ele>
						<time>2019-09-17T09:23:28Z</time>
					</trkpt>
					<trkpt lat="43.931680" lon="5.457810">
						<ele>407</ele>
						<time>2019-09-17T09:23:33Z</time>
					</trkpt>
					<trkpt lat="43.931530" lon="5.458150">
						<ele>406</ele>
						<time>2019-09-17T09:23:39Z</time>
					</trkpt>
					<trkpt lat="43.931410" lon="5.458610">
						<ele>404</ele>
						<time>2019-09-17T09:23:48Z</time>
					</trkpt>
					<trkpt lat="43.931240" lon="5.458910">
						<ele>400</ele>
						<time>2019-09-17T09:23:54Z</time>
					</trkpt>
					<trkpt lat="43.931110" lon="5.459080">
						<ele>397</ele>
						<time>2019-09-17T09:23:58Z</time>
					</trkpt>
					<trkpt lat="43.930630" lon="5.459600">
						<ele>387</ele>
						<time>2019-09-17T09:24:12Z</time>
					</trkpt>
					<trkpt lat="43.930490" lon="5.459630">
						<ele>384</ele>
						<time>2019-09-17T09:24:16Z</time>
					</trkpt>
					<trkpt lat="43.930410" lon="5.459690">
						<ele>382</ele>
						<time>2019-09-17T09:24:18Z</time>
					</trkpt>
					<trkpt lat="43.930290" lon="5.460000">
						<ele>380</ele>
						<time>2019-09-17T09:24:24Z</time>
					</trkpt>
					<trkpt lat="43.930150" lon="5.460100">
						<ele>376</ele>
						<time>2019-09-17T09:24:27Z</time>
					</trkpt>
					<trkpt lat="43.929980" lon="5.460310">
						<ele>372</ele>
						<time>2019-09-17T09:24:33Z</time>
					</trkpt>
					<trkpt lat="43.929780" lon="5.461070">
						<ele>368</ele>
						<time>2019-09-17T09:24:46Z</time>
					</trkpt>
					<trkpt lat="43.929760" lon="5.461270">
						<ele>368</ele>
						<time>2019-09-17T09:24:50Z</time>
					</trkpt>
					<trkpt lat="43.929490" lon="5.461540">
						<ele>362</ele>
						<time>2019-09-17T09:24:57Z</time>
					</trkpt>
					<trkpt lat="43.929440" lon="5.461710">
						<ele>361</ele>
						<time>2019-09-17T09:25:01Z</time>
					</trkpt>
					<trkpt lat="43.929450" lon="5.461840">
						<ele>361</ele>
						<time>2019-09-17T09:25:03Z</time>
					</trkpt>
					<trkpt lat="43.929420" lon="5.462070">
						<ele>360</ele>
						<time>2019-09-17T09:25:07Z</time>
					</trkpt>
					<trkpt lat="43.929340" lon="5.462290">
						<ele>359</ele>
						<time>2019-09-17T09:25:11Z</time>
					</trkpt>
					<trkpt lat="43.929270" lon="5.462640">
						<ele>358</ele>
						<time>2019-09-17T09:25:17Z</time>
					</trkpt>
					<trkpt lat="43.929200" lon="5.462580">
						<ele>356</ele>
						<time>2019-09-17T09:25:19Z</time>
					</trkpt>
					<trkpt lat="43.929190" lon="5.462870">
						<ele>357</ele>
						<time>2019-09-17T09:25:24Z</time>
					</trkpt>
					<trkpt lat="43.928670" lon="5.464400">
						<ele>359</ele>
						<time>2019-09-17T09:25:52Z</time>
					</trkpt>
					<trkpt lat="43.928480" lon="5.465150">
						<ele>361</ele>
						<time>2019-09-17T09:26:06Z</time>
					</trkpt>
					<trkpt lat="43.928420" lon="5.465300">
						<ele>361</ele>
						<time>2019-09-17T09:26:08Z</time>
					</trkpt>
					<trkpt lat="43.928340" lon="5.466420">
						<ele>367</ele>
						<time>2019-09-17T09:26:27Z</time>
					</trkpt>
					<trkpt lat="43.928260" lon="5.466820">
						<ele>369</ele>
						<time>2019-09-17T09:26:34Z</time>
					</trkpt>
					<trkpt lat="43.928030" lon="5.467280">
						<ele>370</ele>
						<time>2019-09-17T09:26:44Z</time>
					</trkpt>
					<trkpt lat="43.927860" lon="5.467730">
						<ele>372</ele>
						<time>2019-09-17T09:26:52Z</time>
					</trkpt>
					<trkpt lat="43.927710" lon="5.468560">
						<ele>375</ele>
						<time>2019-09-17T09:27:07Z</time>
					</trkpt>
					<trkpt lat="43.927710" lon="5.469370">
						<ele>379</ele>
						<time>2019-09-17T09:27:20Z</time>
					</trkpt>
					<trkpt lat="43.927750" lon="5.469610">
						<ele>380</ele>
						<time>2019-09-17T09:27:24Z</time>
					</trkpt>
					<trkpt lat="43.928180" lon="5.471100">
						<ele>392</ele>
						<time>2019-09-17T09:27:51Z</time>
					</trkpt>
					<trkpt lat="43.928170" lon="5.471240">
						<ele>392</ele>
						<time>2019-09-17T09:27:54Z</time>
					</trkpt>
					<trkpt lat="43.928040" lon="5.471590">
						<ele>389</ele>
						<time>2019-09-17T09:28:00Z</time>
					</trkpt>
					<trkpt lat="43.927930" lon="5.471800">
						<ele>387</ele>
						<time>2019-09-17T09:28:05Z</time>
					</trkpt>
					<trkpt lat="43.927890" lon="5.472020">
						<ele>386</ele>
						<time>2019-09-17T09:28:09Z</time>
					</trkpt>
					<trkpt lat="43.927950" lon="5.473010">
						<ele>388</ele>
						<time>2019-09-17T09:28:25Z</time>
					</trkpt>
					<trkpt lat="43.927900" lon="5.473670">
						<ele>389</ele>
						<time>2019-09-17T09:28:36Z</time>
					</trkpt>
					<trkpt lat="43.927820" lon="5.474180">
						<ele>389</ele>
						<time>2019-09-17T09:28:45Z</time>
					</trkpt>
					<trkpt lat="43.927560" lon="5.475150">
						<ele>388</ele>
						<time>2019-09-17T09:29:03Z</time>
					</trkpt>
					<trkpt lat="43.927520" lon="5.475430">
						<ele>390</ele>
						<time>2019-09-17T09:29:07Z</time>
					</trkpt>
					<trkpt lat="43.927510" lon="5.475780">
						<ele>393</ele>
						<time>2019-09-17T09:29:13Z</time>
					</trkpt>
					<trkpt lat="43.927420" lon="5.476250">
						<ele>395</ele>
						<time>2019-09-17T09:29:22Z</time>
					</trkpt>
					<trkpt lat="43.927280" lon="5.476630">
						<ele>395</ele>
						<time>2019-09-17T09:29:29Z</time>
					</trkpt>
					<trkpt lat="43.927240" lon="5.477030">
						<ele>396</ele>
						<time>2019-09-17T09:29:36Z</time>
					</trkpt>
					<trkpt lat="43.927190" lon="5.477240">
						<ele>396</ele>
						<time>2019-09-17T09:29:39Z</time>
					</trkpt>
					<trkpt lat="43.927000" lon="5.477650">
						<ele>394</ele>
						<time>2019-09-17T09:29:47Z</time>
					</trkpt>
					<trkpt lat="43.927000" lon="5.477810">
						<ele>395</ele>
						<time>2019-09-17T09:29:50Z</time>
					</trkpt>
					<trkpt lat="43.927080" lon="5.478020">
						<ele>399</ele>
						<time>2019-09-17T09:29:54Z</time>
					</trkpt>
					<trkpt lat="43.927080" lon="5.478170">
						<ele>400</ele>
						<time>2019-09-17T09:29:57Z</time>
					</trkpt>
					<trkpt lat="43.926990" lon="5.478530">
						<ele>399</ele>
						<time>2019-09-17T09:30:03Z</time>
					</trkpt>
					<trkpt lat="43.926960" lon="5.479020">
						<ele>402</ele>
						<time>2019-09-17T09:30:11Z</time>
					</trkpt>
					<trkpt lat="43.926830" lon="5.479640">
						<ele>404</ele>
						<time>2019-09-17T09:30:22Z</time>
					</trkpt>
					<trkpt lat="43.926700" lon="5.480120">
						<ele>406</ele>
						<time>2019-09-17T09:30:31Z</time>
					</trkpt>
					<trkpt lat="43.926620" lon="5.480330">
						<ele>406</ele>
						<time>2019-09-17T09:30:35Z</time>
					</trkpt>
					<trkpt lat="43.926500" lon="5.481350">
						<ele>412</ele>
						<time>2019-09-17T09:30:52Z</time>
					</trkpt>
					<trkpt lat="43.926530" lon="5.481710">
						<ele>415</ele>
						<time>2019-09-17T09:30:58Z</time>
					</trkpt>
					<trkpt lat="43.926450" lon="5.482360">
						<ele>416</ele>
						<time>2019-09-17T09:31:09Z</time>
					</trkpt>
					<trkpt lat="43.926250" lon="5.483460">
						<ele>424</ele>
						<time>2019-09-17T09:31:28Z</time>
					</trkpt>
					<trkpt lat="43.926100" lon="5.483660">
						<ele>425</ele>
						<time>2019-09-17T09:31:33Z</time>
					</trkpt>
					<trkpt lat="43.925920" lon="5.483710">
						<ele>422</ele>
						<time>2019-09-17T09:31:38Z</time>
					</trkpt>
					<trkpt lat="43.925290" lon="5.483510">
						<ele>416</ele>
						<time>2019-09-17T09:31:53Z</time>
					</trkpt>
					<trkpt lat="43.925070" lon="5.483390">
						<ele>414</ele>
						<time>2019-09-17T09:31:58Z</time>
					</trkpt>
					<trkpt lat="43.924830" lon="5.483590">
						<ele>415</ele>
						<time>2019-09-17T09:32:05Z</time>
					</trkpt>
					<trkpt lat="43.924590" lon="5.483920">
						<ele>414</ele>
						<time>2019-09-17T09:32:13Z</time>
					</trkpt>
					<trkpt lat="43.924520" lon="5.484260">
						<ele>414</ele>
						<time>2019-09-17T09:32:19Z</time>
					</trkpt>
					<trkpt lat="43.924150" lon="5.485180">
						<ele>411</ele>
						<time>2019-09-17T09:32:36Z</time>
					</trkpt>
					<trkpt lat="43.924110" lon="5.485650">
						<ele>413</ele>
						<time>2019-09-17T09:32:44Z</time>
					</trkpt>
					<trkpt lat="43.924260" lon="5.486050">
						<ele>415</ele>
						<time>2019-09-17T09:32:52Z</time>
					</trkpt>
					<trkpt lat="43.924230" lon="5.486470">
						<ele>415</ele>
						<time>2019-09-17T09:32:59Z</time>
					</trkpt>
					<trkpt lat="43.924370" lon="5.487550">
						<ele>411</ele>
						<time>2019-09-17T09:33:17Z</time>
					</trkpt>
					<trkpt lat="43.924250" lon="5.487990">
						<ele>408</ele>
						<time>2019-09-17T09:33:25Z</time>
					</trkpt>
					<trkpt lat="43.924230" lon="5.488400">
						<ele>405</ele>
						<time>2019-09-17T09:33:32Z</time>
					</trkpt>
					<trkpt lat="43.924070" lon="5.489010">
						<ele>400</ele>
						<time>2019-09-17T09:33:43Z</time>
					</trkpt>
					<trkpt lat="43.923840" lon="5.490310">
						<ele>394</ele>
						<time>2019-09-17T09:34:06Z</time>
					</trkpt>
					<trkpt lat="43.923550" lon="5.490940">
						<ele>391</ele>
						<time>2019-09-17T09:34:18Z</time>
					</trkpt>
					<trkpt lat="43.923480" lon="5.491250">
						<ele>390</ele>
						<time>2019-09-17T09:34:24Z</time>
					</trkpt>
					<trkpt lat="43.921820" lon="5.491570">
						<ele>377</ele>
						<time>2019-09-17T09:35:03Z</time>
					</trkpt>
					<trkpt lat="43.921160" lon="5.491520">
						<ele>374</ele>
						<time>2019-09-17T09:35:18Z</time>
					</trkpt>
					<trkpt lat="43.920750" lon="5.491450">
						<ele>373</ele>
						<time>2019-09-17T09:35:28Z</time>
					</trkpt>
					<trkpt lat="43.920670" lon="5.491350">
						<ele>372</ele>
						<time>2019-09-17T09:35:30Z</time>
					</trkpt>
					<trkpt lat="43.920440" lon="5.491290">
						<ele>371</ele>
						<time>2019-09-17T09:35:36Z</time>
					</trkpt>
					<trkpt lat="43.920220" lon="5.491300">
						<ele>369</ele>
						<time>2019-09-17T09:35:41Z</time>
					</trkpt>
					<trkpt lat="43.920140" lon="5.491460">
						<ele>368</ele>
						<time>2019-09-17T09:35:44Z</time>
					</trkpt>
					<trkpt lat="43.917630" lon="5.493680">
						<ele>361</ele>
						<time>2019-09-17T09:36:54Z</time>
					</trkpt>
					<trkpt lat="43.916830" lon="5.494050">
						<ele>357</ele>
						<time>2019-09-17T09:37:14Z</time>
					</trkpt>
					<trkpt lat="43.917290" lon="5.495470">
						<ele>361</ele>
						<time>2019-09-17T09:37:40Z</time>
					</trkpt>
					<trkpt lat="43.917570" lon="5.496460">
						<ele>362</ele>
						<time>2019-09-17T09:37:58Z</time>
					</trkpt>
					<trkpt lat="43.917970" lon="5.497700">
						<ele>363</ele>
						<time>2019-09-17T09:38:20Z</time>
					</trkpt>
					<trkpt lat="43.918250" lon="5.499350">
						<ele>365</ele>
						<time>2019-09-17T09:38:49Z</time>
					</trkpt>
					<trkpt lat="43.918380" lon="5.499690">
						<ele>366</ele>
						<time>2019-09-17T09:38:55Z</time>
					</trkpt>
					<trkpt lat="43.918650" lon="5.500130">
						<ele>370</ele>
						<time>2019-09-17T09:39:05Z</time>
					</trkpt>
					<trkpt lat="43.918910" lon="5.500640">
						<ele>373</ele>
						<time>2019-09-17T09:39:16Z</time>
					</trkpt>
					<trkpt lat="43.918870" lon="5.500810">
						<ele>373</ele>
						<time>2019-09-17T09:39:19Z</time>
					</trkpt>
					<trkpt lat="43.918820" lon="5.500940">
						<ele>372</ele>
						<time>2019-09-17T09:39:21Z</time>
					</trkpt>
					<trkpt lat="43.918720" lon="5.501090">
						<ele>371</ele>
						<time>2019-09-17T09:39:25Z</time>
					</trkpt>
					<trkpt lat="43.918570" lon="5.501200">
						<ele>369</ele>
						<time>2019-09-17T09:39:29Z</time>
					</trkpt>
					<trkpt lat="43.918470" lon="5.501460">
						<ele>368</ele>
						<time>2019-09-17T09:39:34Z</time>
					</trkpt>
					<trkpt lat="43.918080" lon="5.502000">
						<ele>368</ele>
						<time>2019-09-17T09:39:46Z</time>
					</trkpt>
					<trkpt lat="43.918050" lon="5.502480">
						<ele>368</ele>
						<time>2019-09-17T09:39:55Z</time>
					</trkpt>
					<trkpt lat="43.918010" lon="5.502700">
						<ele>368</ele>
						<time>2019-09-17T09:39:58Z</time>
					</trkpt>
					<trkpt lat="43.917880" lon="5.503000">
						<ele>370</ele>
						<time>2019-09-17T09:40:04Z</time>
					</trkpt>
					<trkpt lat="43.917740" lon="5.503200">
						<ele>372</ele>
						<time>2019-09-17T09:40:09Z</time>
					</trkpt>
					<trkpt lat="43.917570" lon="5.503520">
						<ele>375</ele>
						<time>2019-09-17T09:40:16Z</time>
					</trkpt>
					<trkpt lat="43.917530" lon="5.503940">
						<ele>380</ele>
						<time>2019-09-17T09:40:23Z</time>
					</trkpt>
					<trkpt lat="43.916810" lon="5.505180">
						<ele>384</ele>
						<time>2019-09-17T09:40:50Z</time>
					</trkpt>
					<trkpt lat="43.915860" lon="5.507300">
						<ele>395</ele>
						<time>2019-09-17T09:41:32Z</time>
					</trkpt>
					<trkpt lat="43.915790" lon="5.507580">
						<ele>397</ele>
						<time>2019-09-17T09:41:37Z</time>
					</trkpt>
					<trkpt lat="43.915450" lon="5.508260">
						<ele>402</ele>
						<time>2019-09-17T09:41:50Z</time>
					</trkpt>
					<trkpt lat="43.915160" lon="5.508510">
						<ele>405</ele>
						<time>2019-09-17T09:41:58Z</time>
					</trkpt>
					<trkpt lat="43.915030" lon="5.508830">
						<ele>408</ele>
						<time>2019-09-17T09:42:05Z</time>
					</trkpt>
					<trkpt lat="43.914710" lon="5.509290">
						<ele>410</ele>
						<time>2019-09-17T09:42:15Z</time>
					</trkpt>
					<trkpt lat="43.914500" lon="5.509540">
						<ele>410</ele>
						<time>2019-09-17T09:42:22Z</time>
					</trkpt>
					<trkpt lat="43.914310" lon="5.509670">
						<ele>410</ele>
						<time>2019-09-17T09:42:27Z</time>
					</trkpt>
					<trkpt lat="43.914260" lon="5.509860">
						<ele>410</ele>
						<time>2019-09-17T09:42:30Z</time>
					</trkpt>
					<trkpt lat="43.914270" lon="5.510120">
						<ele>410</ele>
						<time>2019-09-17T09:42:35Z</time>
					</trkpt>
					<trkpt lat="43.914340" lon="5.510310">
						<ele>411</ele>
						<time>2019-09-17T09:42:38Z</time>
					</trkpt>
					<trkpt lat="43.914340" lon="5.510460">
						<ele>411</ele>
						<time>2019-09-17T09:42:41Z</time>
					</trkpt>
					<trkpt lat="43.914260" lon="5.510560">
						<ele>412</ele>
						<time>2019-09-17T09:42:43Z</time>
					</trkpt>
					<trkpt lat="43.913960" lon="5.510520">
						<ele>412</ele>
						<time>2019-09-17T09:42:50Z</time>
					</trkpt>
					<trkpt lat="43.913890" lon="5.510580">
						<ele>413</ele>
						<time>2019-09-17T09:42:52Z</time>
					</trkpt>
					<trkpt lat="43.913590" lon="5.510710">
						<ele>415</ele>
						<time>2019-09-17T09:42:59Z</time>
					</trkpt>
					<trkpt lat="43.913560" lon="5.510890">
						<ele>418</ele>
						<time>2019-09-17T09:43:03Z</time>
					</trkpt>
					<trkpt lat="43.913590" lon="5.511060">
						<ele>418</ele>
						<time>2019-09-17T09:43:06Z</time>
					</trkpt>
					<trkpt lat="43.913580" lon="5.511280">
						<ele>420</ele>
						<time>2019-09-17T09:43:09Z</time>
					</trkpt>
					<trkpt lat="43.913520" lon="5.511360">
						<ele>421</ele>
						<time>2019-09-17T09:43:11Z</time>
					</trkpt>
					<trkpt lat="43.913290" lon="5.511270">
						<ele>423</ele>
						<time>2019-09-17T09:43:17Z</time>
					</trkpt>
					<trkpt lat="43.912130" lon="5.512450">
						<ele>438</ele>
						<time>2019-09-17T09:43:50Z</time>
					</trkpt>
					<trkpt lat="43.912190" lon="5.513090">
						<ele>438</ele>
						<time>2019-09-17T09:44:01Z</time>
					</trkpt>
					<trkpt lat="43.912130" lon="5.513280">
						<ele>439</ele>
						<time>2019-09-17T09:44:05Z</time>
					</trkpt>
					<trkpt lat="43.912010" lon="5.513310">
						<ele>440</ele>
						<time>2019-09-17T09:44:08Z</time>
					</trkpt>
					<trkpt lat="43.911790" lon="5.513250">
						<ele>442</ele>
						<time>2019-09-17T09:44:13Z</time>
					</trkpt>
					<trkpt lat="43.911670" lon="5.513250">
						<ele>443</ele>
						<time>2019-09-17T09:44:16Z</time>
					</trkpt>
					<trkpt lat="43.911560" lon="5.513310">
						<ele>444</ele>
						<time>2019-09-17T09:44:18Z</time>
					</trkpt>
					<trkpt lat="43.911460" lon="5.513330">
						<ele>446</ele>
						<time>2019-09-17T09:44:21Z</time>
					</trkpt>
					<trkpt lat="43.911170" lon="5.513100">
						<ele>448</ele>
						<time>2019-09-17T09:44:28Z</time>
					</trkpt>
					<trkpt lat="43.910930" lon="5.513010">
						<ele>451</ele>
						<time>2019-09-17T09:44:34Z</time>
					</trkpt>
					<trkpt lat="43.910730" lon="5.513040">
						<ele>453</ele>
						<time>2019-09-17T09:44:39Z</time>
					</trkpt>
					<trkpt lat="43.910530" lon="5.513120">
						<ele>455</ele>
						<time>2019-09-17T09:44:44Z</time>
					</trkpt>
					<trkpt lat="43.910230" lon="5.513350">
						<ele>460</ele>
						<time>2019-09-17T09:44:52Z</time>
					</trkpt>
					<trkpt lat="43.910010" lon="5.513700">
						<ele>468</ele>
						<time>2019-09-17T09:45:00Z</time>
					</trkpt>
					<trkpt lat="43.909810" lon="5.513850">
						<ele>473</ele>
						<time>2019-09-17T09:45:05Z</time>
					</trkpt>
					<trkpt lat="43.910190" lon="5.514250">
						<ele>474</ele>
						<time>2019-09-17T09:45:16Z</time>
					</trkpt>
					<trkpt lat="43.910220" lon="5.514380">
						<ele>476</ele>
						<time>2019-09-17T09:45:18Z</time>
					</trkpt>
					<trkpt lat="43.910160" lon="5.514870">
						<ele>484</ele>
						<time>2019-09-17T09:45:27Z</time>
					</trkpt>
					<trkpt lat="43.910240" lon="5.515110">
						<ele>486</ele>
						<time>2019-09-17T09:45:31Z</time>
					</trkpt>
					<trkpt lat="43.910240" lon="5.515380">
						<ele>489</ele>
						<time>2019-09-17T09:45:36Z</time>
					</trkpt>
					<trkpt lat="43.910290" lon="5.515500">
						<ele>490</ele>
						<time>2019-09-17T09:45:38Z</time>
					</trkpt>
					<trkpt lat="43.910460" lon="5.515770">
						<ele>490</ele>
						<time>2019-09-17T09:45:44Z</time>
					</trkpt>
					<trkpt lat="43.910480" lon="5.515960">
						<ele>492</ele>
						<time>2019-09-17T09:45:47Z</time>
					</trkpt>
					<trkpt lat="43.910620" lon="5.516170">
						<ele>490</ele>
						<time>2019-09-17T09:45:52Z</time>
					</trkpt>
					<trkpt lat="43.910660" lon="5.516320">
						<ele>490</ele>
						<time>2019-09-17T09:45:55Z</time>
					</trkpt>
					<trkpt lat="43.910590" lon="5.516660">
						<ele>494</ele>
						<time>2019-09-17T09:46:01Z</time>
					</trkpt>
					<trkpt lat="43.910730" lon="5.517040">
						<ele>493</ele>
						<time>2019-09-17T09:46:08Z</time>
					</trkpt>
					<trkpt lat="43.910800" lon="5.517430">
						<ele>494</ele>
						<time>2019-09-17T09:46:15Z</time>
					</trkpt>
					<trkpt lat="43.910860" lon="5.517530">
						<ele>492</ele>
						<time>2019-09-17T09:46:17Z</time>
					</trkpt>
					<trkpt lat="43.910870" lon="5.517740">
						<ele>493</ele>
						<time>2019-09-17T09:46:20Z</time>
					</trkpt>
					<trkpt lat="43.911010" lon="5.518150">
						<ele>491</ele>
						<time>2019-09-17T09:46:28Z</time>
					</trkpt>
					<trkpt lat="43.911050" lon="5.518390">
						<ele>491</ele>
						<time>2019-09-17T09:46:32Z</time>
					</trkpt>
					<trkpt lat="43.911110" lon="5.518520">
						<ele>489</ele>
						<time>2019-09-17T09:46:35Z</time>
					</trkpt>
					<trkpt lat="43.911100" lon="5.519090">
						<ele>493</ele>
						<time>2019-09-17T09:46:44Z</time>
					</trkpt>
					<trkpt lat="43.911190" lon="5.519590">
						<ele>494</ele>
						<time>2019-09-17T09:46:53Z</time>
					</trkpt>
					<trkpt lat="43.911190" lon="5.519870">
						<ele>497</ele>
						<time>2019-09-17T09:46:58Z</time>
					</trkpt>
					<trkpt lat="43.911230" lon="5.520200">
						<ele>497</ele>
						<time>2019-09-17T09:47:03Z</time>
					</trkpt>
					<trkpt lat="43.911310" lon="5.520440">
						<ele>495</ele>
						<time>2019-09-17T09:47:08Z</time>
					</trkpt>
					<trkpt lat="43.911330" lon="5.521030">
						<ele>495</ele>
						<time>2019-09-17T09:47:18Z</time>
					</trkpt>
					<trkpt lat="43.911270" lon="5.521260">
						<ele>496</ele>
						<time>2019-09-17T09:47:22Z</time>
					</trkpt>
					<trkpt lat="43.911410" lon="5.521720">
						<ele>492</ele>
						<time>2019-09-17T09:47:30Z</time>
					</trkpt>
					<trkpt lat="43.911430" lon="5.521930">
						<ele>491</ele>
						<time>2019-09-17T09:47:34Z</time>
					</trkpt>
					<trkpt lat="43.911390" lon="5.522280">
						<ele>491</ele>
						<time>2019-09-17T09:47:40Z</time>
					</trkpt>
					<trkpt lat="43.911080" lon="5.523540">
						<ele>497</ele>
						<time>2019-09-17T09:48:02Z</time>
					</trkpt>
					<trkpt lat="43.911150" lon="5.523800">
						<ele>494</ele>
						<time>2019-09-17T09:48:07Z</time>
					</trkpt>
					<trkpt lat="43.911270" lon="5.524060">
						<ele>489</ele>
						<time>2019-09-17T09:48:12Z</time>
					</trkpt>
					<trkpt lat="43.911230" lon="5.524350">
						<ele>492</ele>
						<time>2019-09-17T09:48:17Z</time>
					</trkpt>
					<trkpt lat="43.910970" lon="5.524580">
						<ele>502</ele>
						<time>2019-09-17T09:48:24Z</time>
					</trkpt>
					<trkpt lat="43.910760" lon="5.524690">
						<ele>509</ele>
						<time>2019-09-17T09:48:30Z</time>
					</trkpt>
					<trkpt lat="43.910680" lon="5.524830">
						<ele>511</ele>
						<time>2019-09-17T09:48:33Z</time>
					</trkpt>
					<trkpt lat="43.910650" lon="5.525100">
						<ele>513</ele>
						<time>2019-09-17T09:48:37Z</time>
					</trkpt>
					<trkpt lat="43.910690" lon="5.525280">
						<ele>514</ele>
						<time>2019-09-17T09:48:40Z</time>
					</trkpt>
					<trkpt lat="43.911330" lon="5.525980">
						<ele>507</ele>
						<time>2019-09-17T09:48:59Z</time>
					</trkpt>
					<trkpt lat="43.911330" lon="5.526360">
						<ele>512</ele>
						<time>2019-09-17T09:49:06Z</time>
					</trkpt>
					<trkpt lat="43.911400" lon="5.526500">
						<ele>513</ele>
						<time>2019-09-17T09:49:09Z</time>
					</trkpt>
					<trkpt lat="43.911600" lon="5.526570">
						<ele>509</ele>
						<time>2019-09-17T09:49:13Z</time>
					</trkpt>
					<trkpt lat="43.911710" lon="5.526860">
						<ele>507</ele>
						<time>2019-09-17T09:49:19Z</time>
					</trkpt>
					<trkpt lat="43.911810" lon="5.527270">
						<ele>506</ele>
						<time>2019-09-17T09:49:26Z</time>
					</trkpt>
					<trkpt lat="43.911880" lon="5.527930">
						<ele>512</ele>
						<time>2019-09-17T09:49:37Z</time>
					</trkpt>
					<trkpt lat="43.912230" lon="5.528520">
						<ele>510</ele>
						<time>2019-09-17T09:49:50Z</time>
					</trkpt>
					<trkpt lat="43.912550" lon="5.529190">
						<ele>516</ele>
						<time>2019-09-17T09:50:04Z</time>
					</trkpt>
					<trkpt lat="43.912870" lon="5.530310">
						<ele>522</ele>
						<time>2019-09-17T09:50:24Z</time>
					</trkpt>
					<trkpt lat="43.912880" lon="5.530580">
						<ele>525</ele>
						<time>2019-09-17T09:50:29Z</time>
					</trkpt>
					<trkpt lat="43.912970" lon="5.530810">
						<ele>527</ele>
						<time>2019-09-17T09:50:33Z</time>
					</trkpt>
					<trkpt lat="43.913070" lon="5.530890">
						<ele>526</ele>
						<time>2019-09-17T09:50:36Z</time>
					</trkpt>
					<trkpt lat="43.913270" lon="5.530920">
						<ele>522</ele>
						<time>2019-09-17T09:50:40Z</time>
					</trkpt>
					<trkpt lat="43.913400" lon="5.531030">
						<ele>521</ele>
						<time>2019-09-17T09:50:44Z</time>
					</trkpt>
					<trkpt lat="43.913150" lon="5.531040">
						<ele>526</ele>
						<time>2019-09-17T09:50:50Z</time>
					</trkpt>
					<trkpt lat="43.912510" lon="5.530740">
						<ele>536</ele>
						<time>2019-09-17T09:51:06Z</time>
					</trkpt>
					<trkpt lat="43.912340" lon="5.530600">
						<ele>539</ele>
						<time>2019-09-17T09:51:10Z</time>
					</trkpt>
					<trkpt lat="43.911670" lon="5.529410">
						<ele>541</ele>
						<time>2019-09-17T09:51:36Z</time>
					</trkpt>
					<trkpt lat="43.911430" lon="5.529110">
						<ele>545</ele>
						<time>2019-09-17T09:51:43Z</time>
					</trkpt>
					<trkpt lat="43.910800" lon="5.528660">
						<ele>556</ele>
						<time>2019-09-17T09:52:00Z</time>
					</trkpt>
					<trkpt lat="43.910320" lon="5.527560">
						<ele>555</ele>
						<time>2019-09-17T09:52:21Z</time>
					</trkpt>
					<trkpt lat="43.909530" lon="5.526650">
						<ele>553</ele>
						<time>2019-09-17T09:52:45Z</time>
					</trkpt>
					<trkpt lat="43.909510" lon="5.526880">
						<ele>554</ele>
						<time>2019-09-17T09:52:49Z</time>
					</trkpt>
					<trkpt lat="43.910040" lon="5.527990">
						<ele>564</ele>
						<time>2019-09-17T09:53:12Z</time>
					</trkpt>
					<trkpt lat="43.910320" lon="5.528790">
						<ele>565</ele>
						<time>2019-09-17T09:53:27Z</time>
					</trkpt>
					<trkpt lat="43.910330" lon="5.529040">
						<ele>567</ele>
						<time>2019-09-17T09:53:31Z</time>
					</trkpt>
					<trkpt lat="43.910240" lon="5.529820">
						<ele>575</ele>
						<time>2019-09-17T09:53:44Z</time>
					</trkpt>
					<trkpt lat="43.910330" lon="5.530200">
						<ele>577</ele>
						<time>2019-09-17T09:53:51Z</time>
					</trkpt>
					<trkpt lat="43.910480" lon="5.530610">
						<ele>578</ele>
						<time>2019-09-17T09:53:59Z</time>
					</trkpt>
					<trkpt lat="43.910760" lon="5.531850">
						<ele>583</ele>
						<time>2019-09-17T09:54:20Z</time>
					</trkpt>
					<trkpt lat="43.910840" lon="5.532040">
						<ele>583</ele>
						<time>2019-09-17T09:54:24Z</time>
					</trkpt>
					<trkpt lat="43.911350" lon="5.535120">
						<ele>595</ele>
						<time>2019-09-17T09:55:17Z</time>
					</trkpt>
					<trkpt lat="43.911310" lon="5.535380">
						<ele>596</ele>
						<time>2019-09-17T09:55:22Z</time>
					</trkpt>
					<trkpt lat="43.911080" lon="5.535740">
						<ele>596</ele>
						<time>2019-09-17T09:55:30Z</time>
					</trkpt>
					<trkpt lat="43.911120" lon="5.536150">
						<ele>599</ele>
						<time>2019-09-17T09:55:37Z</time>
					</trkpt>
					<trkpt lat="43.911410" lon="5.537260">
						<ele>609</ele>
						<time>2019-09-17T09:55:57Z</time>
					</trkpt>
					<trkpt lat="43.911340" lon="5.537330">
						<ele>610</ele>
						<time>2019-09-17T09:55:59Z</time>
					</trkpt>
					<trkpt lat="43.910970" lon="5.537440">
						<ele>613</ele>
						<time>2019-09-17T09:56:08Z</time>
					</trkpt>
					<trkpt lat="43.910620" lon="5.537450">
						<ele>613</ele>
						<time>2019-09-17T09:56:16Z</time>
					</trkpt>
					<trkpt lat="43.910320" lon="5.537630">
						<ele>614</ele>
						<time>2019-09-17T09:56:23Z</time>
					</trkpt>
					<trkpt lat="43.910110" lon="5.538030">
						<ele>618</ele>
						<time>2019-09-17T09:56:32Z</time>
					</trkpt>
					<trkpt lat="43.909960" lon="5.539130">
						<ele>627</ele>
						<time>2019-09-17T09:56:51Z</time>
					</trkpt>
					<trkpt lat="43.909780" lon="5.539430">
						<ele>629</ele>
						<time>2019-09-17T09:56:57Z</time>
					</trkpt>
					<trkpt lat="43.909390" lon="5.539380">
						<ele>628</ele>
						<time>2019-09-17T09:57:06Z</time>
					</trkpt>
					<trkpt lat="43.909030" lon="5.539780">
						<ele>632</ele>
						<time>2019-09-17T09:57:17Z</time>
					</trkpt>
					<trkpt lat="43.908840" lon="5.540530">
						<ele>637</ele>
						<time>2019-09-17T09:57:30Z</time>
					</trkpt>
					<trkpt lat="43.908740" lon="5.541220">
						<ele>639</ele>
						<time>2019-09-17T09:57:42Z</time>
					</trkpt>
					<trkpt lat="43.908650" lon="5.542020">
						<ele>640</ele>
						<time>2019-09-17T09:57:56Z</time>
					</trkpt>
					<trkpt lat="43.908720" lon="5.542610">
						<ele>642</ele>
						<time>2019-09-17T09:58:06Z</time>
					</trkpt>
					<trkpt lat="43.908740" lon="5.543100">
						<ele>643</ele>
						<time>2019-09-17T09:58:14Z</time>
					</trkpt>
					<trkpt lat="43.908530" lon="5.544090">
						<ele>645</ele>
						<time>2019-09-17T09:58:32Z</time>
					</trkpt>
					<trkpt lat="43.908380" lon="5.544200">
						<ele>645</ele>
						<time>2019-09-17T09:58:36Z</time>
					</trkpt>
					<trkpt lat="43.907930" lon="5.544620">
						<ele>650</ele>
						<time>2019-09-17T09:58:48Z</time>
					</trkpt>
					<trkpt lat="43.907850" lon="5.544890">
						<ele>652</ele>
						<time>2019-09-17T09:58:53Z</time>
					</trkpt>
					<trkpt lat="43.907820" lon="5.545200">
						<ele>652</ele>
						<time>2019-09-17T09:58:58Z</time>
					</trkpt>
					<trkpt lat="43.907220" lon="5.546050">
						<ele>661</ele>
						<time>2019-09-17T09:59:18Z</time>
					</trkpt>
					<trkpt lat="43.906550" lon="5.546870">
						<ele>664</ele>
						<time>2019-09-17T09:59:39Z</time>
					</trkpt>
					<trkpt lat="43.906350" lon="5.547080">
						<ele>665</ele>
						<time>2019-09-17T09:59:45Z</time>
					</trkpt>
					<trkpt lat="43.906090" lon="5.547610">
						<ele>664</ele>
						<time>2019-09-17T09:59:56Z</time>
					</trkpt>
					<trkpt lat="43.905780" lon="5.548100">
						<ele>665</ele>
						<time>2019-09-17T10:00:07Z</time>
					</trkpt>
					<trkpt lat="43.905700" lon="5.548280">
						<ele>665</ele>
						<time>2019-09-17T10:00:10Z</time>
					</trkpt>
					<trkpt lat="43.905350" lon="5.548480">
						<ele>669</ele>
						<time>2019-09-17T10:00:19Z</time>
					</trkpt>
					<trkpt lat="43.905270" lon="5.548490">
						<ele>671</ele>
						<time>2019-09-17T10:00:21Z</time>
					</trkpt>
					<trkpt lat="43.904580" lon="5.549060">
						<ele>680</ele>
						<time>2019-09-17T10:00:40Z</time>
					</trkpt>
					<trkpt lat="43.904470" lon="5.548980">
						<ele>683</ele>
						<time>2019-09-17T10:00:43Z</time>
					</trkpt>
					<trkpt lat="43.904190" lon="5.549230">
						<ele>687</ele>
						<time>2019-09-17T10:00:51Z</time>
					</trkpt>
					<trkpt lat="43.904050" lon="5.549300">
						<ele>688</ele>
						<time>2019-09-17T10:00:54Z</time>
					</trkpt>
					<trkpt lat="43.903540" lon="5.549910">
						<ele>693</ele>
						<time>2019-09-17T10:01:10Z</time>
					</trkpt>
					<trkpt lat="43.903440" lon="5.549890">
						<ele>694</ele>
						<time>2019-09-17T10:01:12Z</time>
					</trkpt>
					<trkpt lat="43.903080" lon="5.551160">
						<ele>688</ele>
						<time>2019-09-17T10:01:35Z</time>
					</trkpt>
					<trkpt lat="43.902970" lon="5.551430">
						<ele>687</ele>
						<time>2019-09-17T10:01:40Z</time>
					</trkpt>
					<trkpt lat="43.902550" lon="5.552130">
						<ele>691</ele>
						<time>2019-09-17T10:01:56Z</time>
					</trkpt>
					<trkpt lat="43.902490" lon="5.552400">
						<ele>692</ele>
						<time>2019-09-17T10:02:00Z</time>
					</trkpt>
					<trkpt lat="43.902350" lon="5.552650">
						<ele>691</ele>
						<time>2019-09-17T10:02:06Z</time>
					</trkpt>
					<trkpt lat="43.902150" lon="5.553310">
						<ele>687</ele>
						<time>2019-09-17T10:02:18Z</time>
					</trkpt>
					<trkpt lat="43.901930" lon="5.553620">
						<ele>686</ele>
						<time>2019-09-17T10:02:25Z</time>
					</trkpt>
					<trkpt lat="43.901880" lon="5.553820">
						<ele>686</ele>
						<time>2019-09-17T10:02:29Z</time>
					</trkpt>
					<trkpt lat="43.901880" lon="5.554010">
						<ele>684</ele>
						<time>2019-09-17T10:02:32Z</time>
					</trkpt>
					<trkpt lat="43.901790" lon="5.554210">
						<ele>685</ele>
						<time>2019-09-17T10:02:36Z</time>
					</trkpt>
					<trkpt lat="43.901700" lon="5.554500">
						<ele>684</ele>
						<time>2019-09-17T10:02:41Z</time>
					</trkpt>
					<trkpt lat="43.901640" lon="5.554550">
						<ele>684</ele>
						<time>2019-09-17T10:02:43Z</time>
					</trkpt>
					<trkpt lat="43.901540" lon="5.554990">
						<ele>681</ele>
						<time>2019-09-17T10:02:51Z</time>
					</trkpt>
					<trkpt lat="43.901470" lon="5.555140">
						<ele>679</ele>
						<time>2019-09-17T10:02:54Z</time>
					</trkpt>
					<trkpt lat="43.901350" lon="5.555570">
						<ele>676</ele>
						<time>2019-09-17T10:03:01Z</time>
					</trkpt>
					<trkpt lat="43.901260" lon="5.556040">
						<ele>674</ele>
						<time>2019-09-17T10:03:09Z</time>
					</trkpt>
					<trkpt lat="43.901100" lon="5.556440">
						<ele>675</ele>
						<time>2019-09-17T10:03:17Z</time>
					</trkpt>
					<trkpt lat="43.900980" lon="5.557500">
						<ele>676</ele>
						<time>2019-09-17T10:03:35Z</time>
					</trkpt>
					<trkpt lat="43.900900" lon="5.557680">
						<ele>676</ele>
						<time>2019-09-17T10:03:39Z</time>
					</trkpt>
					<trkpt lat="43.900930" lon="5.557750">
						<ele>674</ele>
						<time>2019-09-17T10:03:40Z</time>
					</trkpt>
					<trkpt lat="43.900890" lon="5.557870">
						<ele>674</ele>
						<time>2019-09-17T10:03:42Z</time>
					</trkpt>
					<trkpt lat="43.900780" lon="5.558020">
						<ele>674</ele>
						<time>2019-09-17T10:03:46Z</time>
					</trkpt>
					<trkpt lat="43.900490" lon="5.558330">
						<ele>673</ele>
						<time>2019-09-17T10:03:55Z</time>
					</trkpt>
					<trkpt lat="43.900250" lon="5.558720">
						<ele>669</ele>
						<time>2019-09-17T10:04:03Z</time>
					</trkpt>
					<trkpt lat="43.900160" lon="5.558800">
						<ele>669</ele>
						<time>2019-09-17T10:04:06Z</time>
					</trkpt>
					<trkpt lat="43.900030" lon="5.558860">
						<ele>670</ele>
						<time>2019-09-17T10:04:09Z</time>
					</trkpt>
					<trkpt lat="43.899660" lon="5.559260">
						<ele>667</ele>
						<time>2019-09-17T10:04:20Z</time>
					</trkpt>
					<trkpt lat="43.899580" lon="5.559400">
						<ele>666</ele>
						<time>2019-09-17T10:04:23Z</time>
					</trkpt>
					<trkpt lat="43.899570" lon="5.559500">
						<ele>664</ele>
						<time>2019-09-17T10:04:24Z</time>
					</trkpt>
					<trkpt lat="43.899480" lon="5.559650">
						<ele>664</ele>
						<time>2019-09-17T10:04:28Z</time>
					</trkpt>
					<trkpt lat="43.899400" lon="5.559730">
						<ele>664</ele>
						<time>2019-09-17T10:04:30Z</time>
					</trkpt>
					<trkpt lat="43.899350" lon="5.559900">
						<ele>664</ele>
						<time>2019-09-17T10:04:33Z</time>
					</trkpt>
					<trkpt lat="43.899000" lon="5.560330">
						<ele>661</ele>
						<time>2019-09-17T10:04:44Z</time>
					</trkpt>
					<trkpt lat="43.898930" lon="5.560560">
						<ele>658</ele>
						<time>2019-09-17T10:04:48Z</time>
					</trkpt>
					<trkpt lat="43.898710" lon="5.560910">
						<ele>656</ele>
						<time>2019-09-17T10:04:56Z</time>
					</trkpt>
					<trkpt lat="43.898470" lon="5.561730">
						<ele>652</ele>
						<time>2019-09-17T10:05:11Z</time>
					</trkpt>
					<trkpt lat="43.898350" lon="5.561880">
						<ele>652</ele>
						<time>2019-09-17T10:05:15Z</time>
					</trkpt>
					<trkpt lat="43.898150" lon="5.562020">
						<ele>649</ele>
						<time>2019-09-17T10:05:20Z</time>
					</trkpt>
					<trkpt lat="43.897900" lon="5.562450">
						<ele>643</ele>
						<time>2019-09-17T10:05:29Z</time>
					</trkpt>
					<trkpt lat="43.897860" lon="5.562560">
						<ele>642</ele>
						<time>2019-09-17T10:05:31Z</time>
					</trkpt>
					<trkpt lat="43.897740" lon="5.562630">
						<ele>641</ele>
						<time>2019-09-17T10:05:34Z</time>
					</trkpt>
					<trkpt lat="43.897550" lon="5.562970">
						<ele>639</ele>
						<time>2019-09-17T10:05:42Z</time>
					</trkpt>
					<trkpt lat="43.897350" lon="5.563590">
						<ele>631</ele>
						<time>2019-09-17T10:05:53Z</time>
					</trkpt>
					<trkpt lat="43.897250" lon="5.563620">
						<ele>631</ele>
						<time>2019-09-17T10:05:55Z</time>
					</trkpt>
					<trkpt lat="43.897220" lon="5.563810">
						<ele>629</ele>
						<time>2019-09-17T10:05:59Z</time>
					</trkpt>
					<trkpt lat="43.897150" lon="5.563860">
						<ele>629</ele>
						<time>2019-09-17T10:06:01Z</time>
					</trkpt>
					<trkpt lat="43.897060" lon="5.563840">
						<ele>630</ele>
						<time>2019-09-17T10:06:03Z</time>
					</trkpt>
					<trkpt lat="43.897000" lon="5.563950">
						<ele>630</ele>
						<time>2019-09-17T10:06:05Z</time>
					</trkpt>
					<trkpt lat="43.897010" lon="5.564050">
						<ele>629</ele>
						<time>2019-09-17T10:06:07Z</time>
					</trkpt>
					<trkpt lat="43.896960" lon="5.564190">
						<ele>628</ele>
						<time>2019-09-17T10:06:09Z</time>
					</trkpt>
					<trkpt lat="43.896990" lon="5.564340">
						<ele>626</ele>
						<time>2019-09-17T10:06:12Z</time>
					</trkpt>
					<trkpt lat="43.896980" lon="5.564490">
						<ele>624</ele>
						<time>2019-09-17T10:06:15Z</time>
					</trkpt>
					<trkpt lat="43.896920" lon="5.564660">
						<ele>623</ele>
						<time>2019-09-17T10:06:18Z</time>
					</trkpt>
					<trkpt lat="43.896930" lon="5.564790">
						<ele>621</ele>
						<time>2019-09-17T10:06:20Z</time>
					</trkpt>
					<trkpt lat="43.896840" lon="5.565040">
						<ele>620</ele>
						<time>2019-09-17T10:06:25Z</time>
					</trkpt>
					<trkpt lat="43.896780" lon="5.565120">
						<ele>620</ele>
						<time>2019-09-17T10:06:27Z</time>
					</trkpt>
					<trkpt lat="43.896820" lon="5.565160">
						<ele>619</ele>
						<time>2019-09-17T10:06:28Z</time>
					</trkpt>
					<trkpt lat="43.896320" lon="5.565310">
						<ele>621</ele>
						<time>2019-09-17T10:06:40Z</time>
					</trkpt>
					<trkpt lat="43.895930" lon="5.565570">
						<ele>621</ele>
						<time>2019-09-17T10:06:50Z</time>
					</trkpt>
					<trkpt lat="43.895420" lon="5.566060">
						<ele>617</ele>
						<time>2019-09-17T10:07:04Z</time>
					</trkpt>
					<trkpt lat="43.895140" lon="5.566170">
						<ele>614</ele>
						<time>2019-09-17T10:07:11Z</time>
					</trkpt>
					<trkpt lat="43.894950" lon="5.566490">
						<ele>613</ele>
						<time>2019-09-17T10:07:18Z</time>
					</trkpt>
					<trkpt lat="43.894670" lon="5.567130">
						<ele>608</ele>
						<time>2019-09-17T10:07:31Z</time>
					</trkpt>
					<trkpt lat="43.894610" lon="5.567370">
						<ele>606</ele>
						<time>2019-09-17T10:07:35Z</time>
					</trkpt>
					<trkpt lat="43.894590" lon="5.567600">
						<ele>604</ele>
						<time>2019-09-17T10:07:39Z</time>
					</trkpt>
					<trkpt lat="43.894670" lon="5.567860">
						<ele>599</ele>
						<time>2019-09-17T10:07:44Z</time>
					</trkpt>
					<trkpt lat="43.894470" lon="5.567900">
						<ele>596</ele>
						<time>2019-09-17T10:07:48Z</time>
					</trkpt>
					<trkpt lat="43.894380" lon="5.567860">
						<ele>596</ele>
						<time>2019-09-17T10:07:50Z</time>
					</trkpt>
					<trkpt lat="43.894220" lon="5.567640">
						<ele>598</ele>
						<time>2019-09-17T10:07:56Z</time>
					</trkpt>
					<trkpt lat="43.894050" lon="5.567850">
						<ele>592</ele>
						<time>2019-09-17T10:08:01Z</time>
					</trkpt>
					<trkpt lat="43.893910" lon="5.567780">
						<ele>591</ele>
						<time>2019-09-17T10:08:05Z</time>
					</trkpt>
					<trkpt lat="43.893780" lon="5.567600">
						<ele>591</ele>
						<time>2019-09-17T10:08:09Z</time>
					</trkpt>
					<trkpt lat="43.893570" lon="5.567130">
						<ele>591</ele>
						<time>2019-09-17T10:08:18Z</time>
					</trkpt>
					<trkpt lat="43.893420" lon="5.567100">
						<ele>589</ele>
						<time>2019-09-17T10:08:22Z</time>
					</trkpt>
					<trkpt lat="43.893350" lon="5.566690">
						<ele>591</ele>
						<time>2019-09-17T10:08:29Z</time>
					</trkpt>
					<trkpt lat="43.893210" lon="5.566980">
						<ele>589</ele>
						<time>2019-09-17T10:08:35Z</time>
					</trkpt>
					<trkpt lat="43.893110" lon="5.567430">
						<ele>585</ele>
						<time>2019-09-17T10:08:43Z</time>
					</trkpt>
					<trkpt lat="43.893040" lon="5.567560">
						<ele>584</ele>
						<time>2019-09-17T10:08:45Z</time>
					</trkpt>
					<trkpt lat="43.892510" lon="5.567820">
						<ele>583</ele>
						<time>2019-09-17T10:08:58Z</time>
					</trkpt>
					<trkpt lat="43.892400" lon="5.567830">
						<ele>583</ele>
						<time>2019-09-17T10:09:01Z</time>
					</trkpt>
					<trkpt lat="43.892360" lon="5.568410">
						<ele>579</ele>
						<time>2019-09-17T10:09:11Z</time>
					</trkpt>
					<trkpt lat="43.892310" lon="5.568560">
						<ele>576</ele>
						<time>2019-09-17T10:09:14Z</time>
					</trkpt>
					<trkpt lat="43.891580" lon="5.568850">
						<ele>577</ele>
						<time>2019-09-17T10:09:31Z</time>
					</trkpt>
					<trkpt lat="43.891440" lon="5.568890">
						<ele>576</ele>
						<time>2019-09-17T10:09:35Z</time>
					</trkpt>
					<trkpt lat="43.891310" lon="5.568880">
						<ele>575</ele>
						<time>2019-09-17T10:09:38Z</time>
					</trkpt>
					<trkpt lat="43.891080" lon="5.568960">
						<ele>573</ele>
						<time>2019-09-17T10:09:43Z</time>
					</trkpt>
					<trkpt lat="43.890960" lon="5.569050">
						<ele>572</ele>
						<time>2019-09-17T10:09:46Z</time>
					</trkpt>
					<trkpt lat="43.890600" lon="5.569080">
						<ele>570</ele>
						<time>2019-09-17T10:09:55Z</time>
					</trkpt>
					<trkpt lat="43.890400" lon="5.569070">
						<ele>570</ele>
						<time>2019-09-17T10:09:59Z</time>
					</trkpt>
					<trkpt lat="43.890360" lon="5.569220">
						<ele>568</ele>
						<time>2019-09-17T10:10:02Z</time>
					</trkpt>
					<trkpt lat="43.890220" lon="5.569390">
						<ele>562</ele>
						<time>2019-09-17T10:10:07Z</time>
					</trkpt>
					<trkpt lat="43.890060" lon="5.569520">
						<ele>557</ele>
						<time>2019-09-17T10:10:11Z</time>
					</trkpt>
					<trkpt lat="43.889910" lon="5.569510">
						<ele>557</ele>
						<time>2019-09-17T10:10:14Z</time>
					</trkpt>
					<trkpt lat="43.889830" lon="5.569450">
						<ele>559</ele>
						<time>2019-09-17T10:10:16Z</time>
					</trkpt>
					<trkpt lat="43.889450" lon="5.569500">
						<ele>556</ele>
						<time>2019-09-17T10:10:25Z</time>
					</trkpt>
					<trkpt lat="43.889050" lon="5.569500">
						<ele>553</ele>
						<time>2019-09-17T10:10:35Z</time>
					</trkpt>
					<trkpt lat="43.888900" lon="5.569530">
						<ele>551</ele>
						<time>2019-09-17T10:10:38Z</time>
					</trkpt>
					<trkpt lat="43.888630" lon="5.569510">
						<ele>550</ele>
						<time>2019-09-17T10:10:45Z</time>
					</trkpt>
					<trkpt lat="43.888550" lon="5.569530">
						<ele>548</ele>
						<time>2019-09-17T10:10:46Z</time>
					</trkpt>
					<trkpt lat="43.888370" lon="5.569520">
						<ele>547</ele>
						<time>2019-09-17T10:10:51Z</time>
					</trkpt>
					<trkpt lat="43.888340" lon="5.569490">
						<ele>548</ele>
						<time>2019-09-17T10:10:52Z</time>
					</trkpt>
					<trkpt lat="43.888030" lon="5.569490">
						<ele>545</ele>
						<time>2019-09-17T10:10:59Z</time>
					</trkpt>
					<trkpt lat="43.887310" lon="5.569420">
						<ele>541</ele>
						<time>2019-09-17T10:11:16Z</time>
					</trkpt>
					<trkpt lat="43.887030" lon="5.569420">
						<ele>539</ele>
						<time>2019-09-17T10:11:22Z</time>
					</trkpt>
					<trkpt lat="43.886980" lon="5.569400">
						<ele>539</ele>
						<time>2019-09-17T10:11:23Z</time>
					</trkpt>
					<trkpt lat="43.886860" lon="5.569270">
						<ele>542</ele>
						<time>2019-09-17T10:11:27Z</time>
					</trkpt>
					<trkpt lat="43.886510" lon="5.569140">
						<ele>541</ele>
						<time>2019-09-17T10:11:35Z</time>
					</trkpt>
					<trkpt lat="43.886400" lon="5.569160">
						<ele>540</ele>
						<time>2019-09-17T10:11:38Z</time>
					</trkpt>
					<trkpt lat="43.886250" lon="5.569120">
						<ele>538</ele>
						<time>2019-09-17T10:11:42Z</time>
					</trkpt>
					<trkpt lat="43.886040" lon="5.569150">
						<ele>535</ele>
						<time>2019-09-17T10:11:47Z</time>
					</trkpt>
					<trkpt lat="43.885940" lon="5.569130">
						<ele>534</ele>
						<time>2019-09-17T10:11:49Z</time>
					</trkpt>
					<trkpt lat="43.885600" lon="5.569180">
						<ele>529</ele>
						<time>2019-09-17T10:11:57Z</time>
					</trkpt>
					<trkpt lat="43.885470" lon="5.569110">
						<ele>529</ele>
						<time>2019-09-17T10:12:00Z</time>
					</trkpt>
					<trkpt lat="43.885270" lon="5.569110">
						<ele>527</ele>
						<time>2019-09-17T10:12:05Z</time>
					</trkpt>
					<trkpt lat="43.885190" lon="5.569080">
						<ele>526</ele>
						<time>2019-09-17T10:12:07Z</time>
					</trkpt>
					<trkpt lat="43.885140" lon="5.569030">
						<ele>526</ele>
						<time>2019-09-17T10:12:08Z</time>
					</trkpt>
					<trkpt lat="43.884820" lon="5.569000">
						<ele>524</ele>
						<time>2019-09-17T10:12:16Z</time>
					</trkpt>
					<trkpt lat="43.884300" lon="5.569010">
						<ele>521</ele>
						<time>2019-09-17T10:12:28Z</time>
					</trkpt>
					<trkpt lat="43.883870" lon="5.569220">
						<ele>514</ele>
						<time>2019-09-17T10:12:38Z</time>
					</trkpt>
					<trkpt lat="43.883660" lon="5.569540">
						<ele>506</ele>
						<time>2019-09-17T10:12:46Z</time>
					</trkpt>
					<trkpt lat="43.883310" lon="5.569790">
						<ele>500</ele>
						<time>2019-09-17T10:12:55Z</time>
					</trkpt>
					<trkpt lat="43.883130" lon="5.569960">
						<ele>497</ele>
						<time>2019-09-17T10:13:00Z</time>
					</trkpt>
					<trkpt lat="43.882920" lon="5.570080">
						<ele>494</ele>
						<time>2019-09-17T10:13:05Z</time>
					</trkpt>
					<trkpt lat="43.882900" lon="5.570270">
						<ele>491</ele>
						<time>2019-09-17T10:13:09Z</time>
					</trkpt>
					<trkpt lat="43.882930" lon="5.570300">
						<ele>491</ele>
						<time>2019-09-17T10:13:09Z</time>
					</trkpt>
					<trkpt lat="43.883000" lon="5.570150">
						<ele>494</ele>
						<time>2019-09-17T10:13:12Z</time>
					</trkpt>
					<trkpt lat="43.883130" lon="5.570200">
						<ele>494</ele>
						<time>2019-09-17T10:13:16Z</time>
					</trkpt>
					<trkpt lat="43.883150" lon="5.570300">
						<ele>493</ele>
						<time>2019-09-17T10:13:17Z</time>
					</trkpt>
					<trkpt lat="43.883140" lon="5.570360">
						<ele>491</ele>
						<time>2019-09-17T10:13:18Z</time>
					</trkpt>
					<trkpt lat="43.882920" lon="5.570490">
						<ele>488</ele>
						<time>2019-09-17T10:13:24Z</time>
					</trkpt>
					<trkpt lat="43.882910" lon="5.570640">
						<ele>486</ele>
						<time>2019-09-17T10:13:26Z</time>
					</trkpt>
					<trkpt lat="43.882960" lon="5.571000">
						<ele>481</ele>
						<time>2019-09-17T10:13:33Z</time>
					</trkpt>
					<trkpt lat="43.883210" lon="5.570940">
						<ele>483</ele>
						<time>2019-09-17T10:13:39Z</time>
					</trkpt>
					<trkpt lat="43.883410" lon="5.570840">
						<ele>485</ele>
						<time>2019-09-17T10:13:44Z</time>
					</trkpt>
					<trkpt lat="43.883750" lon="5.571010">
						<ele>485</ele>
						<time>2019-09-17T10:13:52Z</time>
					</trkpt>
					<trkpt lat="43.883840" lon="5.571100">
						<ele>485</ele>
						<time>2019-09-17T10:13:55Z</time>
					</trkpt>
					<trkpt lat="43.883900" lon="5.571220">
						<ele>484</ele>
						<time>2019-09-17T10:13:57Z</time>
					</trkpt>
					<trkpt lat="43.883890" lon="5.571410">
						<ele>483</ele>
						<time>2019-09-17T10:14:00Z</time>
					</trkpt>
					<trkpt lat="43.883620" lon="5.571800">
						<ele>478</ele>
						<time>2019-09-17T10:14:09Z</time>
					</trkpt>
					<trkpt lat="43.883500" lon="5.572080">
						<ele>476</ele>
						<time>2019-09-17T10:14:15Z</time>
					</trkpt>
					<trkpt lat="43.883290" lon="5.572810">
						<ele>470</ele>
						<time>2019-09-17T10:14:28Z</time>
					</trkpt>
					<trkpt lat="43.883290" lon="5.573130">
						<ele>466</ele>
						<time>2019-09-17T10:14:33Z</time>
					</trkpt>
					<trkpt lat="43.883230" lon="5.573380">
						<ele>463</ele>
						<time>2019-09-17T10:14:38Z</time>
					</trkpt>
					<trkpt lat="43.883140" lon="5.573510">
						<ele>460</ele>
						<time>2019-09-17T10:14:41Z</time>
					</trkpt>
					<trkpt lat="43.882930" lon="5.573460">
						<ele>458</ele>
						<time>2019-09-17T10:14:46Z</time>
					</trkpt>
					<trkpt lat="43.882240" lon="5.572900">
						<ele>456</ele>
						<time>2019-09-17T10:15:05Z</time>
					</trkpt>
					<trkpt lat="43.881980" lon="5.572990">
						<ele>451</ele>
						<time>2019-09-17T10:15:11Z</time>
					</trkpt>
					<trkpt lat="43.881290" lon="5.572430">
						<ele>445</ele>
						<time>2019-09-17T10:15:29Z</time>
					</trkpt>
					<trkpt lat="43.881040" lon="5.572410">
						<ele>440</ele>
						<time>2019-09-17T10:15:35Z</time>
					</trkpt>
					<trkpt lat="43.880850" lon="5.572550">
						<ele>436</ele>
						<time>2019-09-17T10:15:40Z</time>
					</trkpt>
					<trkpt lat="43.880700" lon="5.572810">
						<ele>432</ele>
						<time>2019-09-17T10:15:46Z</time>
					</trkpt>
					<trkpt lat="43.880580" lon="5.573240">
						<ele>428</ele>
						<time>2019-09-17T10:15:54Z</time>
					</trkpt>
					<trkpt lat="43.880500" lon="5.573350">
						<ele>426</ele>
						<time>2019-09-17T10:15:56Z</time>
					</trkpt>
					<trkpt lat="43.880470" lon="5.573550">
						<ele>424</ele>
						<time>2019-09-17T10:16:00Z</time>
					</trkpt>
					<trkpt lat="43.880380" lon="5.573700">
						<ele>422</ele>
						<time>2019-09-17T10:16:03Z</time>
					</trkpt>
					<trkpt lat="43.880120" lon="5.573910">
						<ele>418</ele>
						<time>2019-09-17T10:16:10Z</time>
					</trkpt>
					<trkpt lat="43.879880" lon="5.574030">
						<ele>416</ele>
						<time>2019-09-17T10:16:16Z</time>
					</trkpt>
					<trkpt lat="43.879770" lon="5.574220">
						<ele>414</ele>
						<time>2019-09-17T10:16:20Z</time>
					</trkpt>
					<trkpt lat="43.879500" lon="5.574540">
						<ele>409</ele>
						<time>2019-09-17T10:16:28Z</time>
					</trkpt>
					<trkpt lat="43.879210" lon="5.574800">
						<ele>407</ele>
						<time>2019-09-17T10:16:37Z</time>
					</trkpt>
					<trkpt lat="43.878790" lon="5.575400">
						<ele>401</ele>
						<time>2019-09-17T10:16:51Z</time>
					</trkpt>
					<trkpt lat="43.878600" lon="5.575530">
						<ele>400</ele>
						<time>2019-09-17T10:16:56Z</time>
					</trkpt>
					<trkpt lat="43.878130" lon="5.575620">
						<ele>397</ele>
						<time>2019-09-17T10:17:07Z</time>
					</trkpt>
					<trkpt lat="43.877710" lon="5.575470">
						<ele>394</ele>
						<time>2019-09-17T10:17:17Z</time>
					</trkpt>
					<trkpt lat="43.877510" lon="5.575370">
						<ele>393</ele>
						<time>2019-09-17T10:17:22Z</time>
					</trkpt>
					<trkpt lat="43.877290" lon="5.575340">
						<ele>391</ele>
						<time>2019-09-17T10:17:27Z</time>
					</trkpt>
					<trkpt lat="43.877190" lon="5.575360">
						<ele>390</ele>
						<time>2019-09-17T10:17:29Z</time>
					</trkpt>
					<trkpt lat="43.877000" lon="5.575470">
						<ele>388</ele>
						<time>2019-09-17T10:17:34Z</time>
					</trkpt>
					<trkpt lat="43.876900" lon="5.575850">
						<ele>386</ele>
						<time>2019-09-17T10:17:41Z</time>
					</trkpt>
					<trkpt lat="43.876460" lon="5.576250">
						<ele>380</ele>
						<time>2019-09-17T10:17:53Z</time>
					</trkpt>
					<trkpt lat="43.876150" lon="5.576590">
						<ele>375</ele>
						<time>2019-09-17T10:18:02Z</time>
					</trkpt>
					<trkpt lat="43.875850" lon="5.576870">
						<ele>370</ele>
						<time>2019-09-17T10:18:11Z</time>
					</trkpt>
					<trkpt lat="43.875740" lon="5.576880">
						<ele>369</ele>
						<time>2019-09-17T10:18:13Z</time>
					</trkpt>
					<trkpt lat="43.875670" lon="5.577310">
						<ele>367</ele>
						<time>2019-09-17T10:18:21Z</time>
					</trkpt>
					<trkpt lat="43.875420" lon="5.577700">
						<ele>364</ele>
						<time>2019-09-17T10:18:30Z</time>
					</trkpt>
					<trkpt lat="43.875220" lon="5.577720">
						<ele>362</ele>
						<time>2019-09-17T10:18:34Z</time>
					</trkpt>
					<trkpt lat="43.874650" lon="5.576690">
						<ele>359</ele>
						<time>2019-09-17T10:18:56Z</time>
					</trkpt>
					<trkpt lat="43.874260" lon="5.576260">
						<ele>356</ele>
						<time>2019-09-17T10:19:08Z</time>
					</trkpt>
					<trkpt lat="43.871160" lon="5.573170">
						<ele>349</ele>
						<time>2019-09-17T10:20:37Z</time>
					</trkpt>
					<trkpt lat="43.870440" lon="5.572620">
						<ele>350</ele>
						<time>2019-09-17T10:20:56Z</time>
					</trkpt>
					<trkpt lat="43.869270" lon="5.571430">
						<ele>349</ele>
						<time>2019-09-17T10:21:30Z</time>
					</trkpt>
					<trkpt lat="43.868530" lon="5.570640">
						<ele>349</ele>
						<time>2019-09-17T10:21:52Z</time>
					</trkpt>
					<trkpt lat="43.866580" lon="5.569850">
						<ele>345</ele>
						<time>2019-09-17T10:22:39Z</time>
					</trkpt>
					<trkpt lat="43.865600" lon="5.569760">
						<ele>344</ele>
						<time>2019-09-17T10:23:02Z</time>
					</trkpt>
					<trkpt lat="43.863950" lon="5.569730">
						<ele>343</ele>
						<time>2019-09-17T10:23:41Z</time>
					</trkpt>
					<trkpt lat="43.863720" lon="5.569700">
						<ele>343</ele>
						<time>2019-09-17T10:23:46Z</time>
					</trkpt>
					<trkpt lat="43.863520" lon="5.569480">
						<ele>343</ele>
						<time>2019-09-17T10:23:52Z</time>
					</trkpt>
					<trkpt lat="43.863290" lon="5.568970">
						<ele>344</ele>
						<time>2019-09-17T10:24:02Z</time>
					</trkpt>
					<trkpt lat="43.863250" lon="5.569120">
						<ele>343</ele>
						<time>2019-09-17T10:24:05Z</time>
					</trkpt>
					<trkpt lat="43.863250" lon="5.570610">
						<ele>342</ele>
						<time>2019-09-17T10:24:30Z</time>
					</trkpt>
					<trkpt lat="43.863210" lon="5.571610">
						<ele>339</ele>
						<time>2019-09-17T10:24:47Z</time>
					</trkpt>
					<trkpt lat="43.863070" lon="5.572480">
						<ele>341</ele>
						<time>2019-09-17T10:25:02Z</time>
					</trkpt>
					<trkpt lat="43.861690" lon="5.577150">
						<ele>355</ele>
						<time>2019-09-17T10:26:27Z</time>
					</trkpt>
					<trkpt lat="43.861610" lon="5.577800">
						<ele>358</ele>
						<time>2019-09-17T10:26:38Z</time>
					</trkpt>
					<trkpt lat="43.861500" lon="5.580010">
						<ele>368</ele>
						<time>2019-09-17T10:27:15Z</time>
					</trkpt>
					<trkpt lat="43.861350" lon="5.581020">
						<ele>371</ele>
						<time>2019-09-17T10:27:33Z</time>
					</trkpt>
					<trkpt lat="43.861130" lon="5.581860">
						<ele>369</ele>
						<time>2019-09-17T10:27:48Z</time>
					</trkpt>
					<trkpt lat="43.861140" lon="5.582140">
						<ele>370</ele>
						<time>2019-09-17T10:27:52Z</time>
					</trkpt>
					<trkpt lat="43.860890" lon="5.583170">
						<ele>365</ele>
						<time>2019-09-17T10:28:11Z</time>
					</trkpt>
					<trkpt lat="43.860780" lon="5.583510">
						<ele>366</ele>
						<time>2019-09-17T10:28:17Z</time>
					</trkpt>
					<trkpt lat="43.860700" lon="5.584450">
						<ele>373</ele>
						<time>2019-09-17T10:28:33Z</time>
					</trkpt>
					<trkpt lat="43.860560" lon="5.584900">
						<ele>374</ele>
						<time>2019-09-17T10:28:41Z</time>
					</trkpt>
					<trkpt lat="43.860380" lon="5.585730">
						<ele>376</ele>
						<time>2019-09-17T10:28:56Z</time>
					</trkpt>
					<trkpt lat="43.860190" lon="5.586270">
						<ele>379</ele>
						<time>2019-09-17T10:29:06Z</time>
					</trkpt>
					<trkpt lat="43.860060" lon="5.586480">
						<ele>379</ele>
						<time>2019-09-17T10:29:10Z</time>
					</trkpt>
					<trkpt lat="43.858930" lon="5.588740">
						<ele>375</ele>
						<time>2019-09-17T10:29:57Z</time>
					</trkpt>
					<trkpt lat="43.858790" lon="5.589260">
						<ele>370</ele>
						<time>2019-09-17T10:30:06Z</time>
					</trkpt>
					<trkpt lat="43.858710" lon="5.590070">
						<ele>369</ele>
						<time>2019-09-17T10:30:20Z</time>
					</trkpt>
					<trkpt lat="43.858720" lon="5.590600">
						<ele>369</ele>
						<time>2019-09-17T10:30:29Z</time>
					</trkpt>
					<trkpt lat="43.858800" lon="5.591320">
						<ele>369</ele>
						<time>2019-09-17T10:30:41Z</time>
					</trkpt>
					<trkpt lat="43.859060" lon="5.592080">
						<ele>369</ele>
						<time>2019-09-17T10:30:55Z</time>
					</trkpt>
					<trkpt lat="43.859720" lon="5.593620">
						<ele>371</ele>
						<time>2019-09-17T10:31:25Z</time>
					</trkpt>
					<trkpt lat="43.859980" lon="5.594700">
						<ele>369</ele>
						<time>2019-09-17T10:31:45Z</time>
					</trkpt>
					<trkpt lat="43.859990" lon="5.595060">
						<ele>368</ele>
						<time>2019-09-17T10:31:51Z</time>
					</trkpt>
					<trkpt lat="43.859880" lon="5.595450">
						<ele>368</ele>
						<time>2019-09-17T10:31:58Z</time>
					</trkpt>
					<trkpt lat="43.859800" lon="5.595480">
						<ele>367</ele>
						<time>2019-09-17T10:32:00Z</time>
					</trkpt>
					<trkpt lat="43.859390" lon="5.595350">
						<ele>366</ele>
						<time>2019-09-17T10:32:09Z</time>
					</trkpt>
					<trkpt lat="43.859110" lon="5.594800">
						<ele>366</ele>
						<time>2019-09-17T10:32:21Z</time>
					</trkpt>
					<trkpt lat="43.858990" lon="5.594780">
						<ele>366</ele>
						<time>2019-09-17T10:32:24Z</time>
					</trkpt>
					<trkpt lat="43.858880" lon="5.594890">
						<ele>366</ele>
						<time>2019-09-17T10:32:27Z</time>
					</trkpt>
					<trkpt lat="43.858570" lon="5.594790">
						<ele>367</ele>
						<time>2019-09-17T10:32:34Z</time>
					</trkpt>
					<trkpt lat="43.858200" lon="5.594360">
						<ele>368</ele>
						<time>2019-09-17T10:32:46Z</time>
					</trkpt>
					<trkpt lat="43.857980" lon="5.594230">
						<ele>371</ele>
						<time>2019-09-17T10:32:51Z</time>
					</trkpt>
					<trkpt lat="43.857520" lon="5.594030">
						<ele>375</ele>
						<time>2019-09-17T10:33:02Z</time>
					</trkpt>
					<trkpt lat="43.857350" lon="5.594020">
						<ele>377</ele>
						<time>2019-09-17T10:33:06Z</time>
					</trkpt>
					<trkpt lat="43.857110" lon="5.593510">
						<ele>378</ele>
						<time>2019-09-17T10:33:17Z</time>
					</trkpt>
					<trkpt lat="43.856940" lon="5.594110">
						<ele>381</ele>
						<time>2019-09-17T10:33:27Z</time>
					</trkpt>
					<trkpt lat="43.856880" lon="5.594430">
						<ele>380</ele>
						<time>2019-09-17T10:33:33Z</time>
					</trkpt>
					<trkpt lat="43.856690" lon="5.594930">
						<ele>379</ele>
						<time>2019-09-17T10:33:43Z</time>
					</trkpt>
					<trkpt lat="43.856480" lon="5.595230">
						<ele>378</ele>
						<time>2019-09-17T10:33:50Z</time>
					</trkpt>
					<trkpt lat="43.856350" lon="5.595380">
						<ele>378</ele>
						<time>2019-09-17T10:33:54Z</time>
					</trkpt>
					<trkpt lat="43.856150" lon="5.595470">
						<ele>379</ele>
						<time>2019-09-17T10:33:58Z</time>
					</trkpt>
					<trkpt lat="43.855390" lon="5.596440">
						<ele>380</ele>
						<time>2019-09-17T10:34:23Z</time>
					</trkpt>
					<trkpt lat="43.854530" lon="5.596960">
						<ele>385</ele>
						<time>2019-09-17T10:34:44Z</time>
					</trkpt>
					<trkpt lat="43.854340" lon="5.597190">
						<ele>385</ele>
						<time>2019-09-17T10:34:50Z</time>
					</trkpt>
					<trkpt lat="43.854190" lon="5.597430">
						<ele>384</ele>
						<time>2019-09-17T10:34:56Z</time>
					</trkpt>
					<trkpt lat="43.854040" lon="5.597700">
						<ele>383</ele>
						<time>2019-09-17T10:35:01Z</time>
					</trkpt>
					<trkpt lat="43.853990" lon="5.597870">
						<ele>382</ele>
						<time>2019-09-17T10:35:05Z</time>
					</trkpt>
					<trkpt lat="43.853490" lon="5.598450">
						<ele>382</ele>
						<time>2019-09-17T10:35:20Z</time>
					</trkpt>
					<trkpt lat="43.853160" lon="5.598920">
						<ele>384</ele>
						<time>2019-09-17T10:35:31Z</time>
					</trkpt>
					<trkpt lat="43.853180" lon="5.599240">
						<ele>380</ele>
						<time>2019-09-17T10:35:36Z</time>
					</trkpt>
					<trkpt lat="43.853130" lon="5.599530">
						<ele>379</ele>
						<time>2019-09-17T10:35:41Z</time>
					</trkpt>
					<trkpt lat="43.853130" lon="5.599790">
						<ele>377</ele>
						<time>2019-09-17T10:35:46Z</time>
					</trkpt>
					<trkpt lat="43.852990" lon="5.600280">
						<ele>376</ele>
						<time>2019-09-17T10:35:54Z</time>
					</trkpt>
					<trkpt lat="43.852990" lon="5.600450">
						<ele>376</ele>
						<time>2019-09-17T10:35:57Z</time>
					</trkpt>
					<trkpt lat="43.853060" lon="5.600610">
						<ele>376</ele>
						<time>2019-09-17T10:36:01Z</time>
					</trkpt>
					<trkpt lat="43.853080" lon="5.600960">
						<ele>376</ele>
						<time>2019-09-17T10:36:06Z</time>
					</trkpt>
					<trkpt lat="43.852930" lon="5.601580">
						<ele>383</ele>
						<time>2019-09-17T10:36:17Z</time>
					</trkpt>
					<trkpt lat="43.852960" lon="5.601920">
						<ele>385</ele>
						<time>2019-09-17T10:36:23Z</time>
					</trkpt>
					<trkpt lat="43.853350" lon="5.602790">
						<ele>387</ele>
						<time>2019-09-17T10:36:40Z</time>
					</trkpt>
					<trkpt lat="43.853370" lon="5.603000">
						<ele>388</ele>
						<time>2019-09-17T10:36:44Z</time>
					</trkpt>
					<trkpt lat="43.853300" lon="5.603490">
						<ele>391</ele>
						<time>2019-09-17T10:36:52Z</time>
					</trkpt>
					<trkpt lat="43.853130" lon="5.604140">
						<ele>394</ele>
						<time>2019-09-17T10:37:04Z</time>
					</trkpt>
					<trkpt lat="43.852840" lon="5.605620">
						<ele>401</ele>
						<time>2019-09-17T10:37:30Z</time>
					</trkpt>
					<trkpt lat="43.852720" lon="5.606100">
						<ele>404</ele>
						<time>2019-09-17T10:37:38Z</time>
					</trkpt>
					<trkpt lat="43.852670" lon="5.606500">
						<ele>405</ele>
						<time>2019-09-17T10:37:45Z</time>
					</trkpt>
					<trkpt lat="43.852420" lon="5.606940">
						<ele>408</ele>
						<time>2019-09-17T10:37:55Z</time>
					</trkpt>
					<trkpt lat="43.852180" lon="5.607650">
						<ele>415</ele>
						<time>2019-09-17T10:38:08Z</time>
					</trkpt>
					<trkpt lat="43.852060" lon="5.608190">
						<ele>419</ele>
						<time>2019-09-17T10:38:17Z</time>
					</trkpt>
					<trkpt lat="43.851740" lon="5.608970">
						<ele>427</ele>
						<time>2019-09-17T10:38:33Z</time>
					</trkpt>
					<trkpt lat="43.851670" lon="5.609710">
						<ele>425</ele>
						<time>2019-09-17T10:38:45Z</time>
					</trkpt>
					<trkpt lat="43.851140" lon="5.611540">
						<ele>439</ele>
						<time>2019-09-17T10:39:18Z</time>
					</trkpt>
					<trkpt lat="43.851070" lon="5.612900">
						<ele>445</ele>
						<time>2019-09-17T10:39:41Z</time>
					</trkpt>
					<trkpt lat="43.850650" lon="5.614250">
						<ele>455</ele>
						<time>2019-09-17T10:40:06Z</time>
					</trkpt>
					<trkpt lat="43.850540" lon="5.614430">
						<ele>459</ele>
						<time>2019-09-17T10:40:10Z</time>
					</trkpt>
					<trkpt lat="43.850110" lon="5.614500">
						<ele>473</ele>
						<time>2019-09-17T10:40:20Z</time>
					</trkpt>
					<trkpt lat="43.849850" lon="5.614810">
						<ele>476</ele>
						<time>2019-09-17T10:40:28Z</time>
					</trkpt>
					<trkpt lat="43.849770" lon="5.615260">
						<ele>478</ele>
						<time>2019-09-17T10:40:36Z</time>
					</trkpt>
					<trkpt lat="43.849430" lon="5.616660">
						<ele>490</ele>
						<time>2019-09-17T10:41:01Z</time>
					</trkpt>
					<trkpt lat="43.849320" lon="5.616760">
						<ele>490</ele>
						<time>2019-09-17T10:41:04Z</time>
					</trkpt>
					<trkpt lat="43.849140" lon="5.616990">
						<ele>489</ele>
						<time>2019-09-17T10:41:10Z</time>
					</trkpt>
					<trkpt lat="43.848970" lon="5.617400">
						<ele>483</ele>
						<time>2019-09-17T10:41:18Z</time>
					</trkpt>
					<trkpt lat="43.848970" lon="5.617690">
						<ele>484</ele>
						<time>2019-09-17T10:41:22Z</time>
					</trkpt>
					<trkpt lat="43.848890" lon="5.617810">
						<ele>482</ele>
						<time>2019-09-17T10:41:25Z</time>
					</trkpt>
					<trkpt lat="43.848780" lon="5.618410">
						<ele>483</ele>
						<time>2019-09-17T10:41:36Z</time>
					</trkpt>
					<trkpt lat="43.848630" lon="5.620850">
						<ele>503</ele>
						<time>2019-09-17T10:42:17Z</time>
					</trkpt>
					<trkpt lat="43.848480" lon="5.621760">
						<ele>510</ele>
						<time>2019-09-17T10:42:33Z</time>
					</trkpt>
					<trkpt lat="43.848330" lon="5.626610">
						<ele>519</ele>
						<time>2019-09-17T10:43:54Z</time>
					</trkpt>
					<trkpt lat="43.848260" lon="5.627600">
						<ele>526</ele>
						<time>2019-09-17T10:44:11Z</time>
					</trkpt>
					<trkpt lat="43.848270" lon="5.628470">
						<ele>530</ele>
						<time>2019-09-17T10:44:26Z</time>
					</trkpt>
					<trkpt lat="43.848400" lon="5.630600">
						<ele>529</ele>
						<time>2019-09-17T10:45:02Z</time>
					</trkpt>
					<trkpt lat="43.848420" lon="5.631360">
						<ele>527</ele>
						<time>2019-09-17T10:45:15Z</time>
					</trkpt>
					<trkpt lat="43.848260" lon="5.634190">
						<ele>544</ele>
						<time>2019-09-17T10:46:02Z</time>
					</trkpt>
					<trkpt lat="43.848150" lon="5.635340">
						<ele>546</ele>
						<time>2019-09-17T10:46:22Z</time>
					</trkpt>
					<trkpt lat="43.848100" lon="5.635800">
						<ele>545</ele>
						<time>2019-09-17T10:46:30Z</time>
					</trkpt>
					<trkpt lat="43.848010" lon="5.635870">
						<ele>542</ele>
						<time>2019-09-17T10:46:32Z</time>
					</trkpt>
					<trkpt lat="43.847970" lon="5.635990">
						<ele>540</ele>
						<time>2019-09-17T10:46:34Z</time>
					</trkpt>
					<trkpt lat="43.847970" lon="5.636180">
						<ele>540</ele>
						<time>2019-09-17T10:46:38Z</time>
					</trkpt>
					<trkpt lat="43.847610" lon="5.637430">
						<ele>535</ele>
						<time>2019-09-17T10:47:00Z</time>
					</trkpt>
					<trkpt lat="43.847460" lon="5.637680">
						<ele>532</ele>
						<time>2019-09-17T10:47:06Z</time>
					</trkpt>
					<trkpt lat="43.846860" lon="5.639800">
						<ele>516</ele>
						<time>2019-09-17T10:47:44Z</time>
					</trkpt>
					<trkpt lat="43.846480" lon="5.641650">
						<ele>504</ele>
						<time>2019-09-17T10:48:17Z</time>
					</trkpt>
					<trkpt lat="43.845990" lon="5.644560">
						<ele>482</ele>
						<time>2019-09-17T10:49:07Z</time>
					</trkpt>
					<trkpt lat="43.845910" lon="5.644610">
						<ele>479</ele>
						<time>2019-09-17T10:49:09Z</time>
					</trkpt>
					<trkpt lat="43.845570" lon="5.644040">
						<ele>470</ele>
						<time>2019-09-17T10:49:21Z</time>
					</trkpt>
					<trkpt lat="43.844840" lon="5.642520">
						<ele>455</ele>
						<time>2019-09-17T10:49:52Z</time>
					</trkpt>
					<trkpt lat="43.844710" lon="5.642650">
						<ele>454</ele>
						<time>2019-09-17T10:49:56Z</time>
					</trkpt>
					<trkpt lat="43.844480" lon="5.643020">
						<ele>452</ele>
						<time>2019-09-17T10:50:04Z</time>
					</trkpt>
					<trkpt lat="43.844120" lon="5.643270">
						<ele>449</ele>
						<time>2019-09-17T10:50:13Z</time>
					</trkpt>
					<trkpt lat="43.843430" lon="5.643350">
						<ele>455</ele>
						<time>2019-09-17T10:50:30Z</time>
					</trkpt>
					<trkpt lat="43.843380" lon="5.643440">
						<ele>456</ele>
						<time>2019-09-17T10:50:32Z</time>
					</trkpt>
					<trkpt lat="43.843430" lon="5.643600">
						<ele>457</ele>
						<time>2019-09-17T10:50:34Z</time>
					</trkpt>
					<trkpt lat="43.843380" lon="5.643650">
						<ele>458</ele>
						<time>2019-09-17T10:50:36Z</time>
					</trkpt>
					<trkpt lat="43.843210" lon="5.643590">
						<ele>461</ele>
						<time>2019-09-17T10:50:40Z</time>
					</trkpt>
					<trkpt lat="43.843090" lon="5.643600">
						<ele>464</ele>
						<time>2019-09-17T10:50:43Z</time>
					</trkpt>
					<trkpt lat="43.843000" lon="5.643670">
						<ele>467</ele>
						<time>2019-09-17T10:50:45Z</time>
					</trkpt>
					<trkpt lat="43.842970" lon="5.643920">
						<ele>470</ele>
						<time>2019-09-17T10:50:50Z</time>
					</trkpt>
					<trkpt lat="43.842980" lon="5.644660">
						<ele>475</ele>
						<time>2019-09-17T10:51:02Z</time>
					</trkpt>
					<trkpt lat="43.842900" lon="5.644640">
						<ele>478</ele>
						<time>2019-09-17T10:51:04Z</time>
					</trkpt>
					<trkpt lat="43.842400" lon="5.643940">
						<ele>486</ele>
						<time>2019-09-17T10:51:20Z</time>
					</trkpt>
					<trkpt lat="43.842080" lon="5.643890">
						<ele>495</ele>
						<time>2019-09-17T10:51:28Z</time>
					</trkpt>
					<trkpt lat="43.841720" lon="5.643470">
						<ele>500</ele>
						<time>2019-09-17T10:51:39Z</time>
					</trkpt>
					<trkpt lat="43.841140" lon="5.643580">
						<ele>509</ele>
						<time>2019-09-17T10:51:53Z</time>
					</trkpt>
					<trkpt lat="43.840900" lon="5.643890">
						<ele>515</ele>
						<time>2019-09-17T10:52:00Z</time>
					</trkpt>
					<trkpt lat="43.840420" lon="5.644060">
						<ele>518</ele>
						<time>2019-09-17T10:52:12Z</time>
					</trkpt>
					<trkpt lat="43.839190" lon="5.645860">
						<ele>529</ele>
						<time>2019-09-17T10:52:54Z</time>
					</trkpt>
					<trkpt lat="43.838710" lon="5.647130">
						<ele>541</ele>
						<time>2019-09-17T10:53:18Z</time>
					</trkpt>
					<trkpt lat="43.838450" lon="5.648060">
						<ele>544</ele>
						<time>2019-09-17T10:53:35Z</time>
					</trkpt>
					<trkpt lat="43.838330" lon="5.648290">
						<ele>546</ele>
						<time>2019-09-17T10:53:39Z</time>
					</trkpt>
					<trkpt lat="43.838170" lon="5.648460">
						<ele>546</ele>
						<time>2019-09-17T10:53:44Z</time>
					</trkpt>
					<trkpt lat="43.838130" lon="5.648340">
						<ele>547</ele>
						<time>2019-09-17T10:53:46Z</time>
					</trkpt>
					<trkpt lat="43.838170" lon="5.648170">
						<ele>548</ele>
						<time>2019-09-17T10:53:49Z</time>
					</trkpt>
					<trkpt lat="43.837930" lon="5.647340">
						<ele>559</ele>
						<time>2019-09-17T10:54:04Z</time>
					</trkpt>
					<trkpt lat="43.837860" lon="5.647260">
						<ele>560</ele>
						<time>2019-09-17T10:54:07Z</time>
					</trkpt>
					<trkpt lat="43.837760" lon="5.647360">
						<ele>562</ele>
						<time>2019-09-17T10:54:09Z</time>
					</trkpt>
					<trkpt lat="43.837670" lon="5.647400">
						<ele>563</ele>
						<time>2019-09-17T10:54:12Z</time>
					</trkpt>
					<trkpt lat="43.837560" lon="5.647410">
						<ele>565</ele>
						<time>2019-09-17T10:54:14Z</time>
					</trkpt>
					<trkpt lat="43.837230" lon="5.647550">
						<ele>565</ele>
						<time>2019-09-17T10:54:22Z</time>
					</trkpt>
					<trkpt lat="43.836980" lon="5.647500">
						<ele>567</ele>
						<time>2019-09-17T10:54:28Z</time>
					</trkpt>
					<trkpt lat="43.836220" lon="5.647450">
						<ele>569</ele>
						<time>2019-09-17T10:54:46Z</time>
					</trkpt>
					<trkpt lat="43.835960" lon="5.647350">
						<ele>570</ele>
						<time>2019-09-17T10:54:52Z</time>
					</trkpt>
					<trkpt lat="43.835690" lon="5.647200">
						<ele>573</ele>
						<time>2019-09-17T10:54:59Z</time>
					</trkpt>
					<trkpt lat="43.835160" lon="5.647020">
						<ele>575</ele>
						<time>2019-09-17T10:55:12Z</time>
					</trkpt>
					<trkpt lat="43.834840" lon="5.647290">
						<ele>579</ele>
						<time>2019-09-17T10:55:20Z</time>
					</trkpt>
					<trkpt lat="43.834170" lon="5.648030">
						<ele>590</ele>
						<time>2019-09-17T10:55:40Z</time>
					</trkpt>
					<trkpt lat="43.833990" lon="5.648520">
						<ele>591</ele>
						<time>2019-09-17T10:55:50Z</time>
					</trkpt>
					<trkpt lat="43.833830" lon="5.648810">
						<ele>593</ele>
						<time>2019-09-17T10:55:56Z</time>
					</trkpt>
					<trkpt lat="43.833530" lon="5.648980">
						<ele>600</ele>
						<time>2019-09-17T10:56:03Z</time>
					</trkpt>
					<trkpt lat="43.831700" lon="5.650500">
						<ele>623</ele>
						<time>2019-09-17T10:56:53Z</time>
					</trkpt>
					<trkpt lat="43.831330" lon="5.650880">
						<ele>624</ele>
						<time>2019-09-17T10:57:04Z</time>
					</trkpt>
					<trkpt lat="43.831180" lon="5.650900">
						<ele>625</ele>
						<time>2019-09-17T10:57:08Z</time>
					</trkpt>
					<trkpt lat="43.831380" lon="5.650610">
						<ele>625</ele>
						<time>2019-09-17T10:57:14Z</time>
					</trkpt>
					<trkpt lat="43.831370" lon="5.650390">
						<ele>626</ele>
						<time>2019-09-17T10:57:18Z</time>
					</trkpt>
					<trkpt lat="43.831290" lon="5.650360">
						<ele>626</ele>
						<time>2019-09-17T10:57:20Z</time>
					</trkpt>
					<trkpt lat="43.831200" lon="5.650450">
						<ele>626</ele>
						<time>2019-09-17T10:57:23Z</time>
					</trkpt>
					<trkpt lat="43.830490" lon="5.649970">
						<ele>626</ele>
						<time>2019-09-17T10:57:41Z</time>
					</trkpt>
					<trkpt lat="43.830410" lon="5.649040">
						<ele>624</ele>
						<time>2019-09-17T10:57:57Z</time>
					</trkpt>
					<trkpt lat="43.829690" lon="5.648130">
						<ele>619</ele>
						<time>2019-09-17T10:58:20Z</time>
					</trkpt>
					<trkpt lat="43.829050" lon="5.646640">
						<ele>611</ele>
						<time>2019-09-17T10:58:49Z</time>
					</trkpt>
					<trkpt lat="43.828630" lon="5.646180">
						<ele>609</ele>
						<time>2019-09-17T10:59:01Z</time>
					</trkpt>
					<trkpt lat="43.828360" lon="5.646150">
						<ele>606</ele>
						<time>2019-09-17T10:59:08Z</time>
					</trkpt>
					<trkpt lat="43.828110" lon="5.645940">
						<ele>605</ele>
						<time>2019-09-17T10:59:14Z</time>
					</trkpt>
					<trkpt lat="43.827780" lon="5.645720">
						<ele>605</ele>
						<time>2019-09-17T10:59:23Z</time>
					</trkpt>
					<trkpt lat="43.826200" lon="5.646160">
						<ele>598</ele>
						<time>2019-09-17T11:00:01Z</time>
					</trkpt>
					<trkpt lat="43.825820" lon="5.645940">
						<ele>591</ele>
						<time>2019-09-17T11:00:10Z</time>
					</trkpt>
					<trkpt lat="43.825320" lon="5.645470">
						<ele>596</ele>
						<time>2019-09-17T11:00:24Z</time>
					</trkpt>
					<trkpt lat="43.824700" lon="5.645500">
						<ele>592</ele>
						<time>2019-09-17T11:00:39Z</time>
					</trkpt>
					<trkpt lat="43.824260" lon="5.645270">
						<ele>586</ele>
						<time>2019-09-17T11:00:50Z</time>
					</trkpt>
					<trkpt lat="43.823540" lon="5.644730">
						<ele>578</ele>
						<time>2019-09-17T11:01:09Z</time>
					</trkpt>
					<trkpt lat="43.823200" lon="5.644430">
						<ele>577</ele>
						<time>2019-09-17T11:01:18Z</time>
					</trkpt>
					<trkpt lat="43.822950" lon="5.644460">
						<ele>572</ele>
						<time>2019-09-17T11:01:24Z</time>
					</trkpt>
					<trkpt lat="43.822800" lon="5.644340">
						<ele>572</ele>
						<time>2019-09-17T11:01:28Z</time>
					</trkpt>
					<trkpt lat="43.822650" lon="5.644020">
						<ele>572</ele>
						<time>2019-09-17T11:01:35Z</time>
					</trkpt>
					<trkpt lat="43.822610" lon="5.643680">
						<ele>573</ele>
						<time>2019-09-17T11:01:40Z</time>
					</trkpt>
					<trkpt lat="43.822690" lon="5.643140">
						<ele>578</ele>
						<time>2019-09-17T11:01:50Z</time>
					</trkpt>
					<trkpt lat="43.822710" lon="5.642470">
						<ele>581</ele>
						<time>2019-09-17T11:02:01Z</time>
					</trkpt>
					<trkpt lat="43.822610" lon="5.642050">
						<ele>579</ele>
						<time>2019-09-17T11:02:08Z</time>
					</trkpt>
					<trkpt lat="43.822490" lon="5.640970">
						<ele>576</ele>
						<time>2019-09-17T11:02:27Z</time>
					</trkpt>
					<trkpt lat="43.822560" lon="5.639990">
						<ele>580</ele>
						<time>2019-09-17T11:02:44Z</time>
					</trkpt>
					<trkpt lat="43.822670" lon="5.639670">
						<ele>583</ele>
						<time>2019-09-17T11:02:49Z</time>
					</trkpt>
					<trkpt lat="43.822800" lon="5.638720">
						<ele>585</ele>
						<time>2019-09-17T11:03:06Z</time>
					</trkpt>
					<trkpt lat="43.822860" lon="5.638530">
						<ele>585</ele>
						<time>2019-09-17T11:03:09Z</time>
					</trkpt>
					<trkpt lat="43.823300" lon="5.637720">
						<ele>584</ele>
						<time>2019-09-17T11:03:26Z</time>
					</trkpt>
					<trkpt lat="43.823590" lon="5.637490">
						<ele>588</ele>
						<time>2019-09-17T11:03:34Z</time>
					</trkpt>
					<trkpt lat="43.823790" lon="5.637240">
						<ele>588</ele>
						<time>2019-09-17T11:03:40Z</time>
					</trkpt>
					<trkpt lat="43.824030" lon="5.636700">
						<ele>583</ele>
						<time>2019-09-17T11:03:51Z</time>
					</trkpt>
					<trkpt lat="43.824440" lon="5.635990">
						<ele>587</ele>
						<time>2019-09-17T11:04:06Z</time>
					</trkpt>
					<trkpt lat="43.824450" lon="5.635750">
						<ele>586</ele>
						<time>2019-09-17T11:04:10Z</time>
					</trkpt>
					<trkpt lat="43.824360" lon="5.635550">
						<ele>584</ele>
						<time>2019-09-17T11:04:14Z</time>
					</trkpt>
					<trkpt lat="43.824090" lon="5.635410">
						<ele>577</ele>
						<time>2019-09-17T11:04:21Z</time>
					</trkpt>
					<trkpt lat="43.824020" lon="5.635310">
						<ele>576</ele>
						<time>2019-09-17T11:04:24Z</time>
					</trkpt>
					<trkpt lat="43.824040" lon="5.634940">
						<ele>580</ele>
						<time>2019-09-17T11:04:30Z</time>
					</trkpt>
					<trkpt lat="43.824010" lon="5.634740">
						<ele>582</ele>
						<time>2019-09-17T11:04:33Z</time>
					</trkpt>
					<trkpt lat="43.823790" lon="5.634520">
						<ele>581</ele>
						<time>2019-09-17T11:04:40Z</time>
					</trkpt>
					<trkpt lat="43.823580" lon="5.634430">
						<ele>578</ele>
						<time>2019-09-17T11:04:45Z</time>
					</trkpt>
					<trkpt lat="43.823290" lon="5.634150">
						<ele>577</ele>
						<time>2019-09-17T11:04:53Z</time>
					</trkpt>
					<trkpt lat="43.823020" lon="5.633680">
						<ele>575</ele>
						<time>2019-09-17T11:05:03Z</time>
					</trkpt>
					<trkpt lat="43.823020" lon="5.632900">
						<ele>577</ele>
						<time>2019-09-17T11:05:16Z</time>
					</trkpt>
					<trkpt lat="43.823090" lon="5.632140">
						<ele>584</ele>
						<time>2019-09-17T11:05:29Z</time>
					</trkpt>
					<trkpt lat="43.823040" lon="5.631830">
						<ele>586</ele>
						<time>2019-09-17T11:05:34Z</time>
					</trkpt>
					<trkpt lat="43.822790" lon="5.631530">
						<ele>584</ele>
						<time>2019-09-17T11:05:42Z</time>
					</trkpt>
					<trkpt lat="43.822480" lon="5.631360">
						<ele>578</ele>
						<time>2019-09-17T11:05:50Z</time>
					</trkpt>
					<trkpt lat="43.822310" lon="5.631070">
						<ele>577</ele>
						<time>2019-09-17T11:05:56Z</time>
					</trkpt>
					<trkpt lat="43.822270" lon="5.630780">
						<ele>580</ele>
						<time>2019-09-17T11:06:01Z</time>
					</trkpt>
					<trkpt lat="43.822420" lon="5.630050">
						<ele>583</ele>
						<time>2019-09-17T11:06:14Z</time>
					</trkpt>
					<trkpt lat="43.822460" lon="5.629700">
						<ele>584</ele>
						<time>2019-09-17T11:06:20Z</time>
					</trkpt>
					<trkpt lat="43.822420" lon="5.629270">
						<ele>584</ele>
						<time>2019-09-17T11:06:27Z</time>
					</trkpt>
					<trkpt lat="43.822320" lon="5.628850">
						<ele>583</ele>
						<time>2019-09-17T11:06:35Z</time>
					</trkpt>
					<trkpt lat="43.822160" lon="5.628490">
						<ele>578</ele>
						<time>2019-09-17T11:06:42Z</time>
					</trkpt>
					<trkpt lat="43.822300" lon="5.627880">
						<ele>583</ele>
						<time>2019-09-17T11:06:53Z</time>
					</trkpt>
					<trkpt lat="43.822280" lon="5.627640">
						<ele>582</ele>
						<time>2019-09-17T11:06:57Z</time>
					</trkpt>
					<trkpt lat="43.822130" lon="5.627310">
						<ele>575</ele>
						<time>2019-09-17T11:07:03Z</time>
					</trkpt>
					<trkpt lat="43.822140" lon="5.627020">
						<ele>575</ele>
						<time>2019-09-17T11:07:08Z</time>
					</trkpt>
					<trkpt lat="43.822240" lon="5.626520">
						<ele>580</ele>
						<time>2019-09-17T11:07:17Z</time>
					</trkpt>
					<trkpt lat="43.822300" lon="5.625820">
						<ele>582</ele>
						<time>2019-09-17T11:07:29Z</time>
					</trkpt>
					<trkpt lat="43.822160" lon="5.625480">
						<ele>577</ele>
						<time>2019-09-17T11:07:35Z</time>
					</trkpt>
					<trkpt lat="43.821610" lon="5.625020">
						<ele>564</ele>
						<time>2019-09-17T11:07:50Z</time>
					</trkpt>
					<trkpt lat="43.820940" lon="5.623940">
						<ele>558</ele>
						<time>2019-09-17T11:08:14Z</time>
					</trkpt>
					<trkpt lat="43.820810" lon="5.623690">
						<ele>557</ele>
						<time>2019-09-17T11:08:20Z</time>
					</trkpt>
					<trkpt lat="43.820820" lon="5.623560">
						<ele>558</ele>
						<time>2019-09-17T11:08:22Z</time>
					</trkpt>
					<trkpt lat="43.820900" lon="5.623480">
						<ele>559</ele>
						<time>2019-09-17T11:08:24Z</time>
					</trkpt>
					<trkpt lat="43.821450" lon="5.623350">
						<ele>561</ele>
						<time>2019-09-17T11:08:37Z</time>
					</trkpt>
					<trkpt lat="43.821750" lon="5.623360">
						<ele>561</ele>
						<time>2019-09-17T11:08:44Z</time>
					</trkpt>
					<trkpt lat="43.822170" lon="5.623640">
						<ele>563</ele>
						<time>2019-09-17T11:08:55Z</time>
					</trkpt>
					<trkpt lat="43.822250" lon="5.623760">
						<ele>566</ele>
						<time>2019-09-17T11:08:58Z</time>
					</trkpt>
					<trkpt lat="43.822330" lon="5.623780">
						<ele>566</ele>
						<time>2019-09-17T11:09:00Z</time>
					</trkpt>
					<trkpt lat="43.822460" lon="5.623730">
						<ele>565</ele>
						<time>2019-09-17T11:09:03Z</time>
					</trkpt>
					<trkpt lat="43.822590" lon="5.623620">
						<ele>564</ele>
						<time>2019-09-17T11:09:06Z</time>
					</trkpt>
					<trkpt lat="43.822690" lon="5.623440">
						<ele>561</ele>
						<time>2019-09-17T11:09:10Z</time>
					</trkpt>
					<trkpt lat="43.822860" lon="5.623300">
						<ele>561</ele>
						<time>2019-09-17T11:09:15Z</time>
					</trkpt>
					<trkpt lat="43.823060" lon="5.622930">
						<ele>555</ele>
						<time>2019-09-17T11:09:23Z</time>
					</trkpt>
					<trkpt lat="43.823310" lon="5.622750">
						<ele>555</ele>
						<time>2019-09-17T11:09:29Z</time>
					</trkpt>
					<trkpt lat="43.823530" lon="5.622520">
						<ele>551</ele>
						<time>2019-09-17T11:09:36Z</time>
					</trkpt>
					<trkpt lat="43.824160" lon="5.622310">
						<ele>557</ele>
						<time>2019-09-17T11:09:51Z</time>
					</trkpt>
					<trkpt lat="43.825050" lon="5.621970">
						<ele>559</ele>
						<time>2019-09-17T11:10:12Z</time>
					</trkpt>
					<trkpt lat="43.825080" lon="5.621810">
						<ele>558</ele>
						<time>2019-09-17T11:10:15Z</time>
					</trkpt>
					<trkpt lat="43.824580" lon="5.621320">
						<ele>555</ele>
						<time>2019-09-17T11:10:29Z</time>
					</trkpt>
					<trkpt lat="43.824350" lon="5.621230">
						<ele>551</ele>
						<time>2019-09-17T11:10:35Z</time>
					</trkpt>
					<trkpt lat="43.824110" lon="5.620990">
						<ele>547</ele>
						<time>2019-09-17T11:10:42Z</time>
					</trkpt>
					<trkpt lat="43.823910" lon="5.620730">
						<ele>546</ele>
						<time>2019-09-17T11:10:48Z</time>
					</trkpt>
					<trkpt lat="43.823750" lon="5.620610">
						<ele>546</ele>
						<time>2019-09-17T11:10:53Z</time>
					</trkpt>
					<trkpt lat="43.823610" lon="5.620610">
						<ele>544</ele>
						<time>2019-09-17T11:10:56Z</time>
					</trkpt>
					<trkpt lat="43.823530" lon="5.620710">
						<ele>542</ele>
						<time>2019-09-17T11:10:58Z</time>
					</trkpt>
					<trkpt lat="43.823190" lon="5.620690">
						<ele>538</ele>
						<time>2019-09-17T11:11:06Z</time>
					</trkpt>
					<trkpt lat="43.822930" lon="5.620570">
						<ele>536</ele>
						<time>2019-09-17T11:11:13Z</time>
					</trkpt>
					<trkpt lat="43.822480" lon="5.619990">
						<ele>533</ele>
						<time>2019-09-17T11:11:27Z</time>
					</trkpt>
					<trkpt lat="43.822310" lon="5.619680">
						<ele>534</ele>
						<time>2019-09-17T11:11:34Z</time>
					</trkpt>
					<trkpt lat="43.821920" lon="5.619370">
						<ele>532</ele>
						<time>2019-09-17T11:11:44Z</time>
					</trkpt>
					<trkpt lat="43.821520" lon="5.618890">
						<ele>532</ele>
						<time>2019-09-17T11:11:56Z</time>
					</trkpt>
					<trkpt lat="43.821450" lon="5.618590">
						<ele>533</ele>
						<time>2019-09-17T11:12:02Z</time>
					</trkpt>
					<trkpt lat="43.821580" lon="5.618290">
						<ele>535</ele>
						<time>2019-09-17T11:12:08Z</time>
					</trkpt>
					<trkpt lat="43.821780" lon="5.617970">
						<ele>538</ele>
						<time>2019-09-17T11:12:15Z</time>
					</trkpt>
					<trkpt lat="43.821960" lon="5.617570">
						<ele>542</ele>
						<time>2019-09-17T11:12:23Z</time>
					</trkpt>
					<trkpt lat="43.822100" lon="5.617500">
						<ele>545</ele>
						<time>2019-09-17T11:12:26Z</time>
					</trkpt>
					<trkpt lat="43.822120" lon="5.617330">
						<ele>546</ele>
						<time>2019-09-17T11:12:29Z</time>
					</trkpt>
					<trkpt lat="43.821780" lon="5.616320">
						<ele>541</ele>
						<time>2019-09-17T11:12:48Z</time>
					</trkpt>
					<trkpt lat="43.821450" lon="5.615540">
						<ele>534</ele>
						<time>2019-09-17T11:13:03Z</time>
					</trkpt>
					<trkpt lat="43.821440" lon="5.615300">
						<ele>534</ele>
						<time>2019-09-17T11:13:07Z</time>
					</trkpt>
					<trkpt lat="43.821490" lon="5.615110">
						<ele>535</ele>
						<time>2019-09-17T11:13:11Z</time>
					</trkpt>
					<trkpt lat="43.821430" lon="5.615050">
						<ele>534</ele>
						<time>2019-09-17T11:13:12Z</time>
					</trkpt>
					<trkpt lat="43.821330" lon="5.615060">
						<ele>532</ele>
						<time>2019-09-17T11:13:15Z</time>
					</trkpt>
					<trkpt lat="43.821210" lon="5.615030">
						<ele>530</ele>
						<time>2019-09-17T11:13:18Z</time>
					</trkpt>
					<trkpt lat="43.821080" lon="5.614920">
						<ele>529</ele>
						<time>2019-09-17T11:13:21Z</time>
					</trkpt>
					<trkpt lat="43.821050" lon="5.614760">
						<ele>530</ele>
						<time>2019-09-17T11:13:24Z</time>
					</trkpt>
					<trkpt lat="43.820950" lon="5.614560">
						<ele>531</ele>
						<time>2019-09-17T11:13:28Z</time>
					</trkpt>
					<trkpt lat="43.820830" lon="5.614500">
						<ele>530</ele>
						<time>2019-09-17T11:13:31Z</time>
					</trkpt>
					<trkpt lat="43.820780" lon="5.614390">
						<ele>532</ele>
						<time>2019-09-17T11:13:33Z</time>
					</trkpt>
					<trkpt lat="43.820850" lon="5.614090">
						<ele>535</ele>
						<time>2019-09-17T11:13:38Z</time>
					</trkpt>
					<trkpt lat="43.820880" lon="5.613760">
						<ele>541</ele>
						<time>2019-09-17T11:13:44Z</time>
					</trkpt>
					<trkpt lat="43.820820" lon="5.613590">
						<ele>543</ele>
						<time>2019-09-17T11:13:47Z</time>
					</trkpt>
					<trkpt lat="43.820770" lon="5.613560">
						<ele>544</ele>
						<time>2019-09-17T11:13:49Z</time>
					</trkpt>
					<trkpt lat="43.820620" lon="5.613330">
						<ele>547</ele>
						<time>2019-09-17T11:13:54Z</time>
					</trkpt>
					<trkpt lat="43.820520" lon="5.613090">
						<ele>551</ele>
						<time>2019-09-17T11:13:58Z</time>
					</trkpt>
					<trkpt lat="43.820370" lon="5.612960">
						<ele>553</ele>
						<time>2019-09-17T11:14:03Z</time>
					</trkpt>
					<trkpt lat="43.820070" lon="5.612880">
						<ele>554</ele>
						<time>2019-09-17T11:14:10Z</time>
					</trkpt>
					<trkpt lat="43.819830" lon="5.612330">
						<ele>559</ele>
						<time>2019-09-17T11:14:21Z</time>
					</trkpt>
					<trkpt lat="43.819860" lon="5.612040">
						<ele>560</ele>
						<time>2019-09-17T11:14:25Z</time>
					</trkpt>
					<trkpt lat="43.820000" lon="5.611540">
						<ele>564</ele>
						<time>2019-09-17T11:14:34Z</time>
					</trkpt>
					<trkpt lat="43.819950" lon="5.611280">
						<ele>567</ele>
						<time>2019-09-17T11:14:39Z</time>
					</trkpt>
					<trkpt lat="43.819670" lon="5.610810">
						<ele>569</ele>
						<time>2019-09-17T11:14:49Z</time>
					</trkpt>
					<trkpt lat="43.819200" lon="5.610300">
						<ele>570</ele>
						<time>2019-09-17T11:15:03Z</time>
					</trkpt>
					<trkpt lat="43.819050" lon="5.609990">
						<ele>570</ele>
						<time>2019-09-17T11:15:10Z</time>
					</trkpt>
					<trkpt lat="43.818940" lon="5.609500">
						<ele>572</ele>
						<time>2019-09-17T11:15:18Z</time>
					</trkpt>
					<trkpt lat="43.818650" lon="5.608970">
						<ele>570</ele>
						<time>2019-09-17T11:15:29Z</time>
					</trkpt>
					<trkpt lat="43.818610" lon="5.608620">
						<ele>570</ele>
						<time>2019-09-17T11:15:35Z</time>
					</trkpt>
					<trkpt lat="43.818620" lon="5.608350">
						<ele>570</ele>
						<time>2019-09-17T11:15:40Z</time>
					</trkpt>
					<trkpt lat="43.818570" lon="5.608110">
						<ele>571</ele>
						<time>2019-09-17T11:15:44Z</time>
					</trkpt>
					<trkpt lat="43.817480" lon="5.607200">
						<ele>560</ele>
						<time>2019-09-17T11:16:14Z</time>
					</trkpt>
					<trkpt lat="43.817430" lon="5.606980">
						<ele>559</ele>
						<time>2019-09-17T11:16:18Z</time>
					</trkpt>
					<trkpt lat="43.817540" lon="5.606510">
						<ele>559</ele>
						<time>2019-09-17T11:16:26Z</time>
					</trkpt>
					<trkpt lat="43.817470" lon="5.605960">
						<ele>557</ele>
						<time>2019-09-17T11:16:35Z</time>
					</trkpt>
					<trkpt lat="43.817240" lon="5.605490">
						<ele>557</ele>
						<time>2019-09-17T11:16:45Z</time>
					</trkpt>
					<trkpt lat="43.817200" lon="5.605120">
						<ele>559</ele>
						<time>2019-09-17T11:16:51Z</time>
					</trkpt>
					<trkpt lat="43.816980" lon="5.604590">
						<ele>561</ele>
						<time>2019-09-17T11:17:02Z</time>
					</trkpt>
					<trkpt lat="43.816640" lon="5.603960">
						<ele>562</ele>
						<time>2019-09-17T11:17:15Z</time>
					</trkpt>
					<trkpt lat="43.816430" lon="5.603450">
						<ele>564</ele>
						<time>2019-09-17T11:17:25Z</time>
					</trkpt>
					<trkpt lat="43.816250" lon="5.602430">
						<ele>562</ele>
						<time>2019-09-17T11:17:42Z</time>
					</trkpt>
					<trkpt lat="43.816230" lon="5.602190">
						<ele>561</ele>
						<time>2019-09-17T11:17:47Z</time>
					</trkpt>
					<trkpt lat="43.816340" lon="5.601800">
						<ele>561</ele>
						<time>2019-09-17T11:17:54Z</time>
					</trkpt>
					<trkpt lat="43.816340" lon="5.601570">
						<ele>561</ele>
						<time>2019-09-17T11:17:57Z</time>
					</trkpt>
					<trkpt lat="43.816140" lon="5.601160">
						<ele>555</ele>
						<time>2019-09-17T11:18:06Z</time>
					</trkpt>
					<trkpt lat="43.816110" lon="5.600670">
						<ele>553</ele>
						<time>2019-09-17T11:18:14Z</time>
					</trkpt>
					<trkpt lat="43.816310" lon="5.600130">
						<ele>556</ele>
						<time>2019-09-17T11:18:24Z</time>
					</trkpt>
					<trkpt lat="43.816330" lon="5.599570">
						<ele>553</ele>
						<time>2019-09-17T11:18:34Z</time>
					</trkpt>
					<trkpt lat="43.816440" lon="5.599260">
						<ele>554</ele>
						<time>2019-09-17T11:18:40Z</time>
					</trkpt>
					<trkpt lat="43.816440" lon="5.599110">
						<ele>553</ele>
						<time>2019-09-17T11:18:42Z</time>
					</trkpt>
					<trkpt lat="43.815870" lon="5.600210">
						<ele>546</ele>
						<time>2019-09-17T11:19:05Z</time>
					</trkpt>
					<trkpt lat="43.815670" lon="5.600770">
						<ele>545</ele>
						<time>2019-09-17T11:19:15Z</time>
					</trkpt>
					<trkpt lat="43.815570" lon="5.600830">
						<ele>544</ele>
						<time>2019-09-17T11:19:18Z</time>
					</trkpt>
					<trkpt lat="43.815430" lon="5.600770">
						<ele>542</ele>
						<time>2019-09-17T11:19:21Z</time>
					</trkpt>
					<trkpt lat="43.815460" lon="5.599180">
						<ele>531</ele>
						<time>2019-09-17T11:19:48Z</time>
					</trkpt>
					<trkpt lat="43.815790" lon="5.598200">
						<ele>530</ele>
						<time>2019-09-17T11:20:06Z</time>
					</trkpt>
					<trkpt lat="43.815780" lon="5.597950">
						<ele>529</ele>
						<time>2019-09-17T11:20:11Z</time>
					</trkpt>
					<trkpt lat="43.815690" lon="5.597730">
						<ele>527</ele>
						<time>2019-09-17T11:20:15Z</time>
					</trkpt>
					<trkpt lat="43.815420" lon="5.597210">
						<ele>523</ele>
						<time>2019-09-17T11:20:26Z</time>
					</trkpt>
					<trkpt lat="43.815390" lon="5.596950">
						<ele>523</ele>
						<time>2019-09-17T11:20:30Z</time>
					</trkpt>
					<trkpt lat="43.815660" lon="5.594900">
						<ele>515</ele>
						<time>2019-09-17T11:21:05Z</time>
					</trkpt>
					<trkpt lat="43.815530" lon="5.594540">
						<ele>512</ele>
						<time>2019-09-17T11:21:12Z</time>
					</trkpt>
					<trkpt lat="43.815330" lon="5.594420">
						<ele>510</ele>
						<time>2019-09-17T11:21:17Z</time>
					</trkpt>
					<trkpt lat="43.814560" lon="5.594680">
						<ele>507</ele>
						<time>2019-09-17T11:21:36Z</time>
					</trkpt>
					<trkpt lat="43.814270" lon="5.594680">
						<ele>505</ele>
						<time>2019-09-17T11:21:42Z</time>
					</trkpt>
					<trkpt lat="43.813400" lon="5.594380">
						<ele>507</ele>
						<time>2019-09-17T11:22:03Z</time>
					</trkpt>
					<trkpt lat="43.813190" lon="5.594380">
						<ele>508</ele>
						<time>2019-09-17T11:22:08Z</time>
					</trkpt>
					<trkpt lat="43.812870" lon="5.594520">
						<ele>509</ele>
						<time>2019-09-17T11:22:16Z</time>
					</trkpt>
					<trkpt lat="43.812200" lon="5.595070">
						<ele>507</ele>
						<time>2019-09-17T11:22:34Z</time>
					</trkpt>
					</trkseg>
				</trk>
			</gpx>